<gpx creator="Cyclotour.ca" version="1.1" xmlns:gpsies="http://www.gpsies.com/GPX/1/0" xmlns:xsi="http://www.w3.org/2001/XMLSchema-instance" xmlns="http://www.topografix.com/GPX/1/1" xsi:schemaLocation="http://www.topografix.com/GPX/1/1 http://www.topografix.com/GPX/1/1/gpx.xsd http://www.gpsies.com/GPX/1/0 http://www.gpsies.com/gpsies.xsd">
<trk>
<name>Champlain/St. Casimir</name>
<trkseg>
<trkpt lat="46.441830000" lon="-72.342040000">
<ele>0</ele>
<time>2026-09-04T07:18:53Z</time>
</trkpt>
<trkpt lat="46.441540000" lon="-72.342500000">
<ele>0</ele>
<time>2026-09-04T07:18:54Z</time>
</trkpt>
<trkpt lat="46.441490000" lon="-72.342520000">
<ele>0</ele>
<time>2026-09-04T07:18:55Z</time>
</trkpt>
<trkpt lat="46.441450000" lon="-72.342500000">
<ele>0</ele>
<time>2026-09-04T07:18:56Z</time>
</trkpt>
<trkpt lat="46.441400000" lon="-72.342450000">
<ele>0</ele>
<time>2026-09-04T07:18:57Z</time>
</trkpt>
<trkpt lat="46.441250000" lon="-72.342230000">
<ele>0</ele>
<time>2026-09-04T07:18:58Z</time>
</trkpt>
<trkpt lat="46.441250000" lon="-72.342230000">
<ele>0</ele>
<time>2026-09-04T07:18:59Z</time>
</trkpt>
<trkpt lat="46.441180000" lon="-72.342140000">
<ele>0</ele>
<time>2026-09-04T07:19:00Z</time>
</trkpt>
<trkpt lat="46.441280000" lon="-72.341300000">
<ele>0</ele>
<time>2026-09-04T07:19:01Z</time>
</trkpt>
<trkpt lat="46.441430000" lon="-72.339870000">
<ele>0</ele>
<time>2026-09-04T07:19:02Z</time>
</trkpt>
<trkpt lat="46.441560000" lon="-72.338830000">
<ele>0</ele>
<time>2026-09-04T07:19:03Z</time>
</trkpt>
<trkpt lat="46.441580000" lon="-72.338710000">
<ele>0</ele>
<time>2026-09-04T07:19:04Z</time>
</trkpt>
<trkpt lat="46.441580000" lon="-72.338710000">
<ele>0</ele>
<time>2026-09-04T07:19:05Z</time>
</trkpt>
<trkpt lat="46.441780000" lon="-72.337400000">
<ele>0</ele>
<time>2026-09-04T07:19:06Z</time>
</trkpt>
<trkpt lat="46.441900000" lon="-72.336490000">
<ele>0</ele>
<time>2026-09-04T07:19:07Z</time>
</trkpt>
<trkpt lat="46.441930000" lon="-72.335860000">
<ele>0</ele>
<time>2026-09-04T07:19:08Z</time>
</trkpt>
<trkpt lat="46.442010000" lon="-72.334760000">
<ele>0</ele>
<time>2026-09-04T07:19:09Z</time>
</trkpt>
<trkpt lat="46.442090000" lon="-72.333780000">
<ele>0</ele>
<time>2026-09-04T07:19:10Z</time>
</trkpt>
<trkpt lat="46.442140000" lon="-72.332680000">
<ele>0</ele>
<time>2026-09-04T07:19:11Z</time>
</trkpt>
<trkpt lat="46.442160000" lon="-72.331300000">
<ele>0</ele>
<time>2026-09-04T07:19:12Z</time>
</trkpt>
<trkpt lat="46.442220000" lon="-72.329820000">
<ele>0</ele>
<time>2026-09-04T07:19:13Z</time>
</trkpt>
<trkpt lat="46.442270000" lon="-72.329030000">
<ele>0</ele>
<time>2026-09-04T07:19:14Z</time>
</trkpt>
<trkpt lat="46.442470000" lon="-72.327380000">
<ele>0</ele>
<time>2026-09-04T07:19:15Z</time>
</trkpt>
<trkpt lat="46.442650000" lon="-72.326000000">
<ele>0</ele>
<time>2026-09-04T07:19:16Z</time>
</trkpt>
<trkpt lat="46.442720000" lon="-72.325190000">
<ele>0</ele>
<time>2026-09-04T07:19:17Z</time>
</trkpt>
<trkpt lat="46.442770000" lon="-72.324190000">
<ele>0</ele>
<time>2026-09-04T07:19:18Z</time>
</trkpt>
<trkpt lat="46.442880000" lon="-72.321540000">
<ele>0</ele>
<time>2026-09-04T07:19:19Z</time>
</trkpt>
<trkpt lat="46.442940000" lon="-72.320350000">
<ele>0</ele>
<time>2026-09-04T07:19:20Z</time>
</trkpt>
<trkpt lat="46.443020000" lon="-72.319390000">
<ele>0</ele>
<time>2026-09-04T07:19:21Z</time>
</trkpt>
<trkpt lat="46.443140000" lon="-72.318280000">
<ele>0</ele>
<time>2026-09-04T07:19:22Z</time>
</trkpt>
<trkpt lat="46.443270000" lon="-72.317240000">
<ele>0</ele>
<time>2026-09-04T07:19:23Z</time>
</trkpt>
<trkpt lat="46.443640000" lon="-72.314770000">
<ele>0</ele>
<time>2026-09-04T07:19:24Z</time>
</trkpt>
<trkpt lat="46.444100000" lon="-72.311660000">
<ele>0</ele>
<time>2026-09-04T07:19:25Z</time>
</trkpt>
<trkpt lat="46.444300000" lon="-72.310300000">
<ele>0</ele>
<time>2026-09-04T07:19:26Z</time>
</trkpt>
<trkpt lat="46.444350000" lon="-72.309980000">
<ele>0</ele>
<time>2026-09-04T07:19:27Z</time>
</trkpt>
<trkpt lat="46.444510000" lon="-72.310040000">
<ele>0</ele>
<time>2026-09-04T07:19:28Z</time>
</trkpt>
<trkpt lat="46.444680000" lon="-72.310160000">
<ele>0</ele>
<time>2026-09-04T07:19:29Z</time>
</trkpt>
<trkpt lat="46.444840000" lon="-72.310310000">
<ele>0</ele>
<time>2026-09-04T07:19:30Z</time>
</trkpt>
<trkpt lat="46.444980000" lon="-72.310480000">
<ele>0</ele>
<time>2026-09-04T07:19:31Z</time>
</trkpt>
<trkpt lat="46.445620000" lon="-72.311340000">
<ele>0</ele>
<time>2026-09-04T07:19:32Z</time>
</trkpt>
<trkpt lat="46.445620000" lon="-72.311340000">
<ele>0</ele>
<time>2026-09-04T07:19:33Z</time>
</trkpt>
<trkpt lat="46.450260000" lon="-72.317630000">
<ele>0</ele>
<time>2026-09-04T07:19:34Z</time>
</trkpt>
<trkpt lat="46.452310000" lon="-72.320500000">
<ele>0</ele>
<time>2026-09-04T07:19:35Z</time>
</trkpt>
<trkpt lat="46.456780000" lon="-72.326830000">
<ele>0</ele>
<time>2026-09-04T07:19:36Z</time>
</trkpt>
<trkpt lat="46.458100000" lon="-72.328600000">
<ele>0</ele>
<time>2026-09-04T07:19:37Z</time>
</trkpt>
<trkpt lat="46.460480000" lon="-72.331690000">
<ele>0</ele>
<time>2026-09-04T07:19:38Z</time>
</trkpt>
<trkpt lat="46.460870000" lon="-72.332140000">
<ele>0</ele>
<time>2026-09-04T07:19:39Z</time>
</trkpt>
<trkpt lat="46.461190000" lon="-72.332410000">
<ele>0</ele>
<time>2026-09-04T07:19:40Z</time>
</trkpt>
<trkpt lat="46.461460000" lon="-72.332590000">
<ele>0</ele>
<time>2026-09-04T07:19:41Z</time>
</trkpt>
<trkpt lat="46.461710000" lon="-72.332710000">
<ele>0</ele>
<time>2026-09-04T07:19:42Z</time>
</trkpt>
<trkpt lat="46.462070000" lon="-72.332830000">
<ele>0</ele>
<time>2026-09-04T07:19:43Z</time>
</trkpt>
<trkpt lat="46.462450000" lon="-72.332880000">
<ele>0</ele>
<time>2026-09-04T07:19:44Z</time>
</trkpt>
<trkpt lat="46.462680000" lon="-72.332890000">
<ele>0</ele>
<time>2026-09-04T07:19:45Z</time>
</trkpt>
<trkpt lat="46.463840000" lon="-72.332820000">
<ele>0</ele>
<time>2026-09-04T07:19:46Z</time>
</trkpt>
<trkpt lat="46.464680000" lon="-72.332810000">
<ele>0</ele>
<time>2026-09-04T07:19:47Z</time>
</trkpt>
<trkpt lat="46.465930000" lon="-72.332820000">
<ele>0</ele>
<time>2026-09-04T07:19:48Z</time>
</trkpt>
<trkpt lat="46.466120000" lon="-72.332810000">
<ele>0</ele>
<time>2026-09-04T07:19:49Z</time>
</trkpt>
<trkpt lat="46.466390000" lon="-72.332790000">
<ele>0</ele>
<time>2026-09-04T07:19:50Z</time>
</trkpt>
<trkpt lat="46.466670000" lon="-72.332730000">
<ele>0</ele>
<time>2026-09-04T07:19:51Z</time>
</trkpt>
<trkpt lat="46.466840000" lon="-72.332660000">
<ele>0</ele>
<time>2026-09-04T07:19:52Z</time>
</trkpt>
<trkpt lat="46.467160000" lon="-72.332450000">
<ele>0</ele>
<time>2026-09-04T07:19:53Z</time>
</trkpt>
<trkpt lat="46.467560000" lon="-72.332090000">
<ele>0</ele>
<time>2026-09-04T07:19:54Z</time>
</trkpt>
<trkpt lat="46.468000000" lon="-72.331650000">
<ele>0</ele>
<time>2026-09-04T07:19:55Z</time>
</trkpt>
<trkpt lat="46.468340000" lon="-72.331270000">
<ele>0</ele>
<time>2026-09-04T07:19:56Z</time>
</trkpt>
<trkpt lat="46.468620000" lon="-72.330940000">
<ele>0</ele>
<time>2026-09-04T07:19:57Z</time>
</trkpt>
<trkpt lat="46.469000000" lon="-72.330390000">
<ele>0</ele>
<time>2026-09-04T07:19:58Z</time>
</trkpt>
<trkpt lat="46.469120000" lon="-72.330200000">
<ele>0</ele>
<time>2026-09-04T07:19:59Z</time>
</trkpt>
<trkpt lat="46.469550000" lon="-72.329540000">
<ele>0</ele>
<time>2026-09-04T07:20:00Z</time>
</trkpt>
<trkpt lat="46.469780000" lon="-72.329190000">
<ele>0</ele>
<time>2026-09-04T07:20:01Z</time>
</trkpt>
<trkpt lat="46.470330000" lon="-72.328510000">
<ele>0</ele>
<time>2026-09-04T07:20:02Z</time>
</trkpt>
<trkpt lat="46.470540000" lon="-72.328250000">
<ele>0</ele>
<time>2026-09-04T07:20:03Z</time>
</trkpt>
<trkpt lat="46.470540000" lon="-72.328250000">
<ele>0</ele>
<time>2026-09-04T07:20:04Z</time>
</trkpt>
<trkpt lat="46.471050000" lon="-72.327650000">
<ele>0</ele>
<time>2026-09-04T07:20:05Z</time>
</trkpt>
<trkpt lat="46.471360000" lon="-72.327180000">
<ele>0</ele>
<time>2026-09-04T07:20:06Z</time>
</trkpt>
<trkpt lat="46.471580000" lon="-72.326760000">
<ele>0</ele>
<time>2026-09-04T07:20:07Z</time>
</trkpt>
<trkpt lat="46.471760000" lon="-72.326350000">
<ele>0</ele>
<time>2026-09-04T07:20:08Z</time>
</trkpt>
<trkpt lat="46.472240000" lon="-72.325400000">
<ele>0</ele>
<time>2026-09-04T07:20:09Z</time>
</trkpt>
<trkpt lat="46.472560000" lon="-72.325000000">
<ele>0</ele>
<time>2026-09-04T07:20:10Z</time>
</trkpt>
<trkpt lat="46.472930000" lon="-72.324740000">
<ele>0</ele>
<time>2026-09-04T07:20:11Z</time>
</trkpt>
<trkpt lat="46.473100000" lon="-72.324660000">
<ele>0</ele>
<time>2026-09-04T07:20:12Z</time>
</trkpt>
<trkpt lat="46.473460000" lon="-72.324560000">
<ele>0</ele>
<time>2026-09-04T07:20:13Z</time>
</trkpt>
<trkpt lat="46.474670000" lon="-72.324330000">
<ele>0</ele>
<time>2026-09-04T07:20:14Z</time>
</trkpt>
<trkpt lat="46.474960000" lon="-72.324270000">
<ele>0</ele>
<time>2026-09-04T07:20:15Z</time>
</trkpt>
<trkpt lat="46.475350000" lon="-72.324220000">
<ele>0</ele>
<time>2026-09-04T07:20:16Z</time>
</trkpt>
<trkpt lat="46.475740000" lon="-72.324220000">
<ele>0</ele>
<time>2026-09-04T07:20:17Z</time>
</trkpt>
<trkpt lat="46.476180000" lon="-72.324280000">
<ele>0</ele>
<time>2026-09-04T07:20:18Z</time>
</trkpt>
<trkpt lat="46.476760000" lon="-72.324460000">
<ele>0</ele>
<time>2026-09-04T07:20:19Z</time>
</trkpt>
<trkpt lat="46.477140000" lon="-72.324580000">
<ele>0</ele>
<time>2026-09-04T07:20:20Z</time>
</trkpt>
<trkpt lat="46.477450000" lon="-72.324640000">
<ele>0</ele>
<time>2026-09-04T07:20:21Z</time>
</trkpt>
<trkpt lat="46.477860000" lon="-72.324660000">
<ele>0</ele>
<time>2026-09-04T07:20:22Z</time>
</trkpt>
<trkpt lat="46.478340000" lon="-72.324590000">
<ele>0</ele>
<time>2026-09-04T07:20:23Z</time>
</trkpt>
<trkpt lat="46.478630000" lon="-72.324500000">
<ele>0</ele>
<time>2026-09-04T07:20:24Z</time>
</trkpt>
<trkpt lat="46.479900000" lon="-72.324120000">
<ele>0</ele>
<time>2026-09-04T07:20:25Z</time>
</trkpt>
<trkpt lat="46.480610000" lon="-72.323910000">
<ele>0</ele>
<time>2026-09-04T07:20:26Z</time>
</trkpt>
<trkpt lat="46.480960000" lon="-72.323800000">
<ele>0</ele>
<time>2026-09-04T07:20:27Z</time>
</trkpt>
<trkpt lat="46.481280000" lon="-72.323710000">
<ele>0</ele>
<time>2026-09-04T07:20:28Z</time>
</trkpt>
<trkpt lat="46.481490000" lon="-72.323670000">
<ele>0</ele>
<time>2026-09-04T07:20:29Z</time>
</trkpt>
<trkpt lat="46.481670000" lon="-72.323660000">
<ele>0</ele>
<time>2026-09-04T07:20:30Z</time>
</trkpt>
<trkpt lat="46.481780000" lon="-72.323650000">
<ele>0</ele>
<time>2026-09-04T07:20:31Z</time>
</trkpt>
<trkpt lat="46.481980000" lon="-72.323690000">
<ele>0</ele>
<time>2026-09-04T07:20:32Z</time>
</trkpt>
<trkpt lat="46.482160000" lon="-72.323750000">
<ele>0</ele>
<time>2026-09-04T07:20:33Z</time>
</trkpt>
<trkpt lat="46.482360000" lon="-72.323820000">
<ele>0</ele>
<time>2026-09-04T07:20:34Z</time>
</trkpt>
<trkpt lat="46.482550000" lon="-72.323930000">
<ele>0</ele>
<time>2026-09-04T07:20:35Z</time>
</trkpt>
<trkpt lat="46.482710000" lon="-72.324030000">
<ele>0</ele>
<time>2026-09-04T07:20:36Z</time>
</trkpt>
<trkpt lat="46.483700000" lon="-72.324650000">
<ele>0</ele>
<time>2026-09-04T07:20:37Z</time>
</trkpt>
<trkpt lat="46.484570000" lon="-72.325210000">
<ele>0</ele>
<time>2026-09-04T07:20:38Z</time>
</trkpt>
<trkpt lat="46.485420000" lon="-72.325720000">
<ele>0</ele>
<time>2026-09-04T07:20:39Z</time>
</trkpt>
<trkpt lat="46.485750000" lon="-72.325850000">
<ele>0</ele>
<time>2026-09-04T07:20:40Z</time>
</trkpt>
<trkpt lat="46.485930000" lon="-72.325890000">
<ele>0</ele>
<time>2026-09-04T07:20:41Z</time>
</trkpt>
<trkpt lat="46.486280000" lon="-72.325910000">
<ele>0</ele>
<time>2026-09-04T07:20:42Z</time>
</trkpt>
<trkpt lat="46.486640000" lon="-72.325830000">
<ele>0</ele>
<time>2026-09-04T07:20:43Z</time>
</trkpt>
<trkpt lat="46.486880000" lon="-72.325740000">
<ele>0</ele>
<time>2026-09-04T07:20:44Z</time>
</trkpt>
<trkpt lat="46.487750000" lon="-72.325280000">
<ele>0</ele>
<time>2026-09-04T07:20:45Z</time>
</trkpt>
<trkpt lat="46.487960000" lon="-72.325180000">
<ele>0</ele>
<time>2026-09-04T07:20:46Z</time>
</trkpt>
<trkpt lat="46.487960000" lon="-72.325180000">
<ele>0</ele>
<time>2026-09-04T07:20:47Z</time>
</trkpt>
<trkpt lat="46.488220000" lon="-72.325050000">
<ele>0</ele>
<time>2026-09-04T07:20:48Z</time>
</trkpt>
<trkpt lat="46.488710000" lon="-72.324860000">
<ele>0</ele>
<time>2026-09-04T07:20:49Z</time>
</trkpt>
<trkpt lat="46.489220000" lon="-72.324760000">
<ele>0</ele>
<time>2026-09-04T07:20:50Z</time>
</trkpt>
<trkpt lat="46.489620000" lon="-72.324740000">
<ele>0</ele>
<time>2026-09-04T07:20:51Z</time>
</trkpt>
<trkpt lat="46.490170000" lon="-72.324820000">
<ele>0</ele>
<time>2026-09-04T07:20:52Z</time>
</trkpt>
<trkpt lat="46.490480000" lon="-72.324920000">
<ele>0</ele>
<time>2026-09-04T07:20:53Z</time>
</trkpt>
<trkpt lat="46.491600000" lon="-72.325390000">
<ele>0</ele>
<time>2026-09-04T07:20:54Z</time>
</trkpt>
<trkpt lat="46.492250000" lon="-72.325630000">
<ele>0</ele>
<time>2026-09-04T07:20:55Z</time>
</trkpt>
<trkpt lat="46.493130000" lon="-72.325820000">
<ele>0</ele>
<time>2026-09-04T07:20:56Z</time>
</trkpt>
<trkpt lat="46.493450000" lon="-72.325920000">
<ele>0</ele>
<time>2026-09-04T07:20:57Z</time>
</trkpt>
<trkpt lat="46.493660000" lon="-72.326010000">
<ele>0</ele>
<time>2026-09-04T07:20:58Z</time>
</trkpt>
<trkpt lat="46.494010000" lon="-72.326190000">
<ele>0</ele>
<time>2026-09-04T07:20:59Z</time>
</trkpt>
<trkpt lat="46.494230000" lon="-72.326320000">
<ele>0</ele>
<time>2026-09-04T07:21:00Z</time>
</trkpt>
<trkpt lat="46.495000000" lon="-72.326800000">
<ele>0</ele>
<time>2026-09-04T07:21:01Z</time>
</trkpt>
<trkpt lat="46.495330000" lon="-72.327020000">
<ele>0</ele>
<time>2026-09-04T07:21:02Z</time>
</trkpt>
<trkpt lat="46.495650000" lon="-72.327270000">
<ele>0</ele>
<time>2026-09-04T07:21:03Z</time>
</trkpt>
<trkpt lat="46.495860000" lon="-72.327480000">
<ele>0</ele>
<time>2026-09-04T07:21:04Z</time>
</trkpt>
<trkpt lat="46.496200000" lon="-72.327930000">
<ele>0</ele>
<time>2026-09-04T07:21:05Z</time>
</trkpt>
<trkpt lat="46.496450000" lon="-72.328380000">
<ele>0</ele>
<time>2026-09-04T07:21:06Z</time>
</trkpt>
<trkpt lat="46.496760000" lon="-72.329160000">
<ele>0</ele>
<time>2026-09-04T07:21:07Z</time>
</trkpt>
<trkpt lat="46.497080000" lon="-72.330140000">
<ele>0</ele>
<time>2026-09-04T07:21:08Z</time>
</trkpt>
<trkpt lat="46.497080000" lon="-72.330140000">
<ele>0</ele>
<time>2026-09-04T07:21:09Z</time>
</trkpt>
<trkpt lat="46.497950000" lon="-72.332790000">
<ele>0</ele>
<time>2026-09-04T07:21:10Z</time>
</trkpt>
<trkpt lat="46.498400000" lon="-72.334220000">
<ele>0</ele>
<time>2026-09-04T07:21:11Z</time>
</trkpt>
<trkpt lat="46.498670000" lon="-72.335180000">
<ele>0</ele>
<time>2026-09-04T07:21:12Z</time>
</trkpt>
<trkpt lat="46.498930000" lon="-72.336160000">
<ele>0</ele>
<time>2026-09-04T07:21:13Z</time>
</trkpt>
<trkpt lat="46.499180000" lon="-72.337140000">
<ele>0</ele>
<time>2026-09-04T07:21:14Z</time>
</trkpt>
<trkpt lat="46.499260000" lon="-72.337430000">
<ele>0</ele>
<time>2026-09-04T07:21:15Z</time>
</trkpt>
<trkpt lat="46.499450000" lon="-72.337930000">
<ele>0</ele>
<time>2026-09-04T07:21:16Z</time>
</trkpt>
<trkpt lat="46.499610000" lon="-72.338270000">
<ele>0</ele>
<time>2026-09-04T07:21:17Z</time>
</trkpt>
<trkpt lat="46.499880000" lon="-72.338730000">
<ele>0</ele>
<time>2026-09-04T07:21:18Z</time>
</trkpt>
<trkpt lat="46.500730000" lon="-72.339970000">
<ele>0</ele>
<time>2026-09-04T07:21:19Z</time>
</trkpt>
<trkpt lat="46.501110000" lon="-72.340530000">
<ele>0</ele>
<time>2026-09-04T07:21:20Z</time>
</trkpt>
<trkpt lat="46.501770000" lon="-72.341420000">
<ele>0</ele>
<time>2026-09-04T07:21:21Z</time>
</trkpt>
<trkpt lat="46.502150000" lon="-72.341940000">
<ele>0</ele>
<time>2026-09-04T07:21:22Z</time>
</trkpt>
<trkpt lat="46.502990000" lon="-72.342970000">
<ele>0</ele>
<time>2026-09-04T07:21:23Z</time>
</trkpt>
<trkpt lat="46.503600000" lon="-72.343720000">
<ele>0</ele>
<time>2026-09-04T07:21:24Z</time>
</trkpt>
<trkpt lat="46.503890000" lon="-72.343980000">
<ele>0</ele>
<time>2026-09-04T07:21:25Z</time>
</trkpt>
<trkpt lat="46.504080000" lon="-72.344110000">
<ele>0</ele>
<time>2026-09-04T07:21:26Z</time>
</trkpt>
<trkpt lat="46.504400000" lon="-72.344230000">
<ele>0</ele>
<time>2026-09-04T07:21:27Z</time>
</trkpt>
<trkpt lat="46.504980000" lon="-72.344320000">
<ele>0</ele>
<time>2026-09-04T07:21:28Z</time>
</trkpt>
<trkpt lat="46.505210000" lon="-72.344310000">
<ele>0</ele>
<time>2026-09-04T07:21:29Z</time>
</trkpt>
<trkpt lat="46.505540000" lon="-72.344230000">
<ele>0</ele>
<time>2026-09-04T07:21:30Z</time>
</trkpt>
<trkpt lat="46.505930000" lon="-72.344050000">
<ele>0</ele>
<time>2026-09-04T07:21:31Z</time>
</trkpt>
<trkpt lat="46.506390000" lon="-72.343780000">
<ele>0</ele>
<time>2026-09-04T07:21:32Z</time>
</trkpt>
<trkpt lat="46.507300000" lon="-72.343270000">
<ele>0</ele>
<time>2026-09-04T07:21:33Z</time>
</trkpt>
<trkpt lat="46.509080000" lon="-72.342490000">
<ele>0</ele>
<time>2026-09-04T07:21:34Z</time>
</trkpt>
<trkpt lat="46.511830000" lon="-72.341270000">
<ele>0</ele>
<time>2026-09-04T07:21:35Z</time>
</trkpt>
<trkpt lat="46.514580000" lon="-72.340020000">
<ele>0</ele>
<time>2026-09-04T07:21:36Z</time>
</trkpt>
<trkpt lat="46.516180000" lon="-72.339290000">
<ele>0</ele>
<time>2026-09-04T07:21:37Z</time>
</trkpt>
<trkpt lat="46.516640000" lon="-72.339140000">
<ele>0</ele>
<time>2026-09-04T07:21:38Z</time>
</trkpt>
<trkpt lat="46.516820000" lon="-72.339090000">
<ele>0</ele>
<time>2026-09-04T07:21:39Z</time>
</trkpt>
<trkpt lat="46.517410000" lon="-72.338980000">
<ele>0</ele>
<time>2026-09-04T07:21:40Z</time>
</trkpt>
<trkpt lat="46.517920000" lon="-72.338940000">
<ele>0</ele>
<time>2026-09-04T07:21:41Z</time>
</trkpt>
<trkpt lat="46.518360000" lon="-72.338940000">
<ele>0</ele>
<time>2026-09-04T07:21:42Z</time>
</trkpt>
<trkpt lat="46.518780000" lon="-72.338980000">
<ele>0</ele>
<time>2026-09-04T07:21:43Z</time>
</trkpt>
<trkpt lat="46.519510000" lon="-72.339100000">
<ele>0</ele>
<time>2026-09-04T07:21:44Z</time>
</trkpt>
<trkpt lat="46.521650000" lon="-72.339460000">
<ele>0</ele>
<time>2026-09-04T07:21:45Z</time>
</trkpt>
<trkpt lat="46.522290000" lon="-72.339550000">
<ele>0</ele>
<time>2026-09-04T07:21:46Z</time>
</trkpt>
<trkpt lat="46.522290000" lon="-72.339550000">
<ele>0</ele>
<time>2026-09-04T07:21:47Z</time>
</trkpt>
<trkpt lat="46.523090000" lon="-72.339620000">
<ele>0</ele>
<time>2026-09-04T07:21:48Z</time>
</trkpt>
<trkpt lat="46.524110000" lon="-72.339620000">
<ele>0</ele>
<time>2026-09-04T07:21:49Z</time>
</trkpt>
<trkpt lat="46.525600000" lon="-72.339550000">
<ele>0</ele>
<time>2026-09-04T07:21:50Z</time>
</trkpt>
<trkpt lat="46.526570000" lon="-72.339500000">
<ele>0</ele>
<time>2026-09-04T07:21:51Z</time>
</trkpt>
<trkpt lat="46.527580000" lon="-72.339410000">
<ele>0</ele>
<time>2026-09-04T07:21:52Z</time>
</trkpt>
<trkpt lat="46.528300000" lon="-72.339380000">
<ele>0</ele>
<time>2026-09-04T07:21:53Z</time>
</trkpt>
<trkpt lat="46.528830000" lon="-72.339350000">
<ele>0</ele>
<time>2026-09-04T07:21:54Z</time>
</trkpt>
<trkpt lat="46.529370000" lon="-72.339320000">
<ele>0</ele>
<time>2026-09-04T07:21:55Z</time>
</trkpt>
<trkpt lat="46.529600000" lon="-72.339300000">
<ele>0</ele>
<time>2026-09-04T07:21:56Z</time>
</trkpt>
<trkpt lat="46.529780000" lon="-72.339350000">
<ele>0</ele>
<time>2026-09-04T07:21:57Z</time>
</trkpt>
<trkpt lat="46.530180000" lon="-72.339490000">
<ele>0</ele>
<time>2026-09-04T07:21:58Z</time>
</trkpt>
<trkpt lat="46.530730000" lon="-72.339650000">
<ele>0</ele>
<time>2026-09-04T07:21:59Z</time>
</trkpt>
<trkpt lat="46.531690000" lon="-72.339950000">
<ele>0</ele>
<time>2026-09-04T07:22:00Z</time>
</trkpt>
<trkpt lat="46.534460000" lon="-72.340830000">
<ele>0</ele>
<time>2026-09-04T07:22:01Z</time>
</trkpt>
<trkpt lat="46.534460000" lon="-72.340830000">
<ele>0</ele>
<time>2026-09-04T07:22:02Z</time>
</trkpt>
<trkpt lat="46.535430000" lon="-72.341140000">
<ele>0</ele>
<time>2026-09-04T07:22:03Z</time>
</trkpt>
<trkpt lat="46.535640000" lon="-72.341190000">
<ele>0</ele>
<time>2026-09-04T07:22:04Z</time>
</trkpt>
<trkpt lat="46.536500000" lon="-72.341360000">
<ele>0</ele>
<time>2026-09-04T07:22:05Z</time>
</trkpt>
<trkpt lat="46.539420000" lon="-72.341870000">
<ele>0</ele>
<time>2026-09-04T07:22:06Z</time>
</trkpt>
<trkpt lat="46.539670000" lon="-72.341930000">
<ele>0</ele>
<time>2026-09-04T07:22:07Z</time>
</trkpt>
<trkpt lat="46.539930000" lon="-72.342030000">
<ele>0</ele>
<time>2026-09-04T07:22:08Z</time>
</trkpt>
<trkpt lat="46.540180000" lon="-72.342170000">
<ele>0</ele>
<time>2026-09-04T07:22:09Z</time>
</trkpt>
<trkpt lat="46.540430000" lon="-72.342340000">
<ele>0</ele>
<time>2026-09-04T07:22:10Z</time>
</trkpt>
<trkpt lat="46.540720000" lon="-72.342620000">
<ele>0</ele>
<time>2026-09-04T07:22:11Z</time>
</trkpt>
<trkpt lat="46.541110000" lon="-72.343130000">
<ele>0</ele>
<time>2026-09-04T07:22:12Z</time>
</trkpt>
<trkpt lat="46.541360000" lon="-72.343610000">
<ele>0</ele>
<time>2026-09-04T07:22:13Z</time>
</trkpt>
<trkpt lat="46.541630000" lon="-72.344200000">
<ele>0</ele>
<time>2026-09-04T07:22:14Z</time>
</trkpt>
<trkpt lat="46.541760000" lon="-72.344410000">
<ele>0</ele>
<time>2026-09-04T07:22:15Z</time>
</trkpt>
<trkpt lat="46.541950000" lon="-72.344650000">
<ele>0</ele>
<time>2026-09-04T07:22:16Z</time>
</trkpt>
<trkpt lat="46.542200000" lon="-72.344870000">
<ele>0</ele>
<time>2026-09-04T07:22:17Z</time>
</trkpt>
<trkpt lat="46.542420000" lon="-72.344980000">
<ele>0</ele>
<time>2026-09-04T07:22:18Z</time>
</trkpt>
<trkpt lat="46.542910000" lon="-72.345100000">
<ele>0</ele>
<time>2026-09-04T07:22:19Z</time>
</trkpt>
<trkpt lat="46.543210000" lon="-72.345090000">
<ele>0</ele>
<time>2026-09-04T07:22:20Z</time>
</trkpt>
<trkpt lat="46.543670000" lon="-72.344970000">
<ele>0</ele>
<time>2026-09-04T07:22:21Z</time>
</trkpt>
<trkpt lat="46.544430000" lon="-72.344710000">
<ele>0</ele>
<time>2026-09-04T07:22:22Z</time>
</trkpt>
<trkpt lat="46.545900000" lon="-72.344160000">
<ele>0</ele>
<time>2026-09-04T07:22:23Z</time>
</trkpt>
<trkpt lat="46.548310000" lon="-72.343070000">
<ele>0</ele>
<time>2026-09-04T07:22:24Z</time>
</trkpt>
<trkpt lat="46.552770000" lon="-72.341030000">
<ele>0</ele>
<time>2026-09-04T07:22:25Z</time>
</trkpt>
<trkpt lat="46.553640000" lon="-72.340640000">
<ele>0</ele>
<time>2026-09-04T07:22:26Z</time>
</trkpt>
<trkpt lat="46.554080000" lon="-72.340490000">
<ele>0</ele>
<time>2026-09-04T07:22:27Z</time>
</trkpt>
<trkpt lat="46.554940000" lon="-72.340310000">
<ele>0</ele>
<time>2026-09-04T07:22:28Z</time>
</trkpt>
<trkpt lat="46.558150000" lon="-72.339850000">
<ele>0</ele>
<time>2026-09-04T07:22:29Z</time>
</trkpt>
<trkpt lat="46.559140000" lon="-72.339760000">
<ele>0</ele>
<time>2026-09-04T07:22:30Z</time>
</trkpt>
<trkpt lat="46.560130000" lon="-72.339790000">
<ele>0</ele>
<time>2026-09-04T07:22:31Z</time>
</trkpt>
<trkpt lat="46.560910000" lon="-72.339900000">
<ele>0</ele>
<time>2026-09-04T07:22:32Z</time>
</trkpt>
<trkpt lat="46.561250000" lon="-72.339980000">
<ele>0</ele>
<time>2026-09-04T07:22:33Z</time>
</trkpt>
<trkpt lat="46.561250000" lon="-72.339980000">
<ele>0</ele>
<time>2026-09-04T07:22:34Z</time>
</trkpt>
<trkpt lat="46.561490000" lon="-72.340050000">
<ele>0</ele>
<time>2026-09-04T07:22:35Z</time>
</trkpt>
<trkpt lat="46.562720000" lon="-72.340470000">
<ele>0</ele>
<time>2026-09-04T07:22:36Z</time>
</trkpt>
<trkpt lat="46.564290000" lon="-72.341010000">
<ele>0</ele>
<time>2026-09-04T07:22:37Z</time>
</trkpt>
<trkpt lat="46.565340000" lon="-72.341380000">
<ele>0</ele>
<time>2026-09-04T07:22:38Z</time>
</trkpt>
<trkpt lat="46.565690000" lon="-72.341500000">
<ele>0</ele>
<time>2026-09-04T07:22:39Z</time>
</trkpt>
<trkpt lat="46.565860000" lon="-72.341580000">
<ele>0</ele>
<time>2026-09-04T07:22:40Z</time>
</trkpt>
<trkpt lat="46.566630000" lon="-72.342010000">
<ele>0</ele>
<time>2026-09-04T07:22:41Z</time>
</trkpt>
<trkpt lat="46.567200000" lon="-72.342360000">
<ele>0</ele>
<time>2026-09-04T07:22:42Z</time>
</trkpt>
<trkpt lat="46.567530000" lon="-72.342550000">
<ele>0</ele>
<time>2026-09-04T07:22:43Z</time>
</trkpt>
<trkpt lat="46.568190000" lon="-72.342810000">
<ele>0</ele>
<time>2026-09-04T07:22:44Z</time>
</trkpt>
<trkpt lat="46.568880000" lon="-72.343030000">
<ele>0</ele>
<time>2026-09-04T07:22:45Z</time>
</trkpt>
<trkpt lat="46.569480000" lon="-72.343170000">
<ele>0</ele>
<time>2026-09-04T07:22:46Z</time>
</trkpt>
<trkpt lat="46.570630000" lon="-72.343360000">
<ele>0</ele>
<time>2026-09-04T07:22:47Z</time>
</trkpt>
<trkpt lat="46.571130000" lon="-72.343550000">
<ele>0</ele>
<time>2026-09-04T07:22:48Z</time>
</trkpt>
<trkpt lat="46.571560000" lon="-72.343800000">
<ele>0</ele>
<time>2026-09-04T07:22:49Z</time>
</trkpt>
<trkpt lat="46.572550000" lon="-72.344430000">
<ele>0</ele>
<time>2026-09-04T07:22:50Z</time>
</trkpt>
<trkpt lat="46.573530000" lon="-72.345000000">
<ele>0</ele>
<time>2026-09-04T07:22:51Z</time>
</trkpt>
<trkpt lat="46.573760000" lon="-72.345100000">
<ele>0</ele>
<time>2026-09-04T07:22:52Z</time>
</trkpt>
<trkpt lat="46.573910000" lon="-72.345120000">
<ele>0</ele>
<time>2026-09-04T07:22:53Z</time>
</trkpt>
<trkpt lat="46.574410000" lon="-72.345160000">
<ele>0</ele>
<time>2026-09-04T07:22:54Z</time>
</trkpt>
<trkpt lat="46.574630000" lon="-72.345120000">
<ele>0</ele>
<time>2026-09-04T07:22:55Z</time>
</trkpt>
<trkpt lat="46.574920000" lon="-72.345020000">
<ele>0</ele>
<time>2026-09-04T07:22:56Z</time>
</trkpt>
<trkpt lat="46.575480000" lon="-72.344690000">
<ele>0</ele>
<time>2026-09-04T07:22:57Z</time>
</trkpt>
<trkpt lat="46.576130000" lon="-72.344350000">
<ele>0</ele>
<time>2026-09-04T07:22:58Z</time>
</trkpt>
<trkpt lat="46.576340000" lon="-72.344250000">
<ele>0</ele>
<time>2026-09-04T07:22:59Z</time>
</trkpt>
<trkpt lat="46.576500000" lon="-72.344200000">
<ele>0</ele>
<time>2026-09-04T07:23:00Z</time>
</trkpt>
<trkpt lat="46.577030000" lon="-72.344050000">
<ele>0</ele>
<time>2026-09-04T07:23:01Z</time>
</trkpt>
<trkpt lat="46.578290000" lon="-72.343870000">
<ele>0</ele>
<time>2026-09-04T07:23:02Z</time>
</trkpt>
<trkpt lat="46.578400000" lon="-72.343840000">
<ele>0</ele>
<time>2026-09-04T07:23:03Z</time>
</trkpt>
<trkpt lat="46.578750000" lon="-72.343700000">
<ele>0</ele>
<time>2026-09-04T07:23:04Z</time>
</trkpt>
<trkpt lat="46.579000000" lon="-72.343540000">
<ele>0</ele>
<time>2026-09-04T07:23:05Z</time>
</trkpt>
<trkpt lat="46.579210000" lon="-72.343360000">
<ele>0</ele>
<time>2026-09-04T07:23:06Z</time>
</trkpt>
<trkpt lat="46.579450000" lon="-72.343090000">
<ele>0</ele>
<time>2026-09-04T07:23:07Z</time>
</trkpt>
<trkpt lat="46.579830000" lon="-72.342560000">
<ele>0</ele>
<time>2026-09-04T07:23:08Z</time>
</trkpt>
<trkpt lat="46.580600000" lon="-72.341520000">
<ele>0</ele>
<time>2026-09-04T07:23:09Z</time>
</trkpt>
<trkpt lat="46.582510000" lon="-72.339010000">
<ele>0</ele>
<time>2026-09-04T07:23:10Z</time>
</trkpt>
<trkpt lat="46.583250000" lon="-72.338190000">
<ele>0</ele>
<time>2026-09-04T07:23:11Z</time>
</trkpt>
<trkpt lat="46.584310000" lon="-72.337090000">
<ele>0</ele>
<time>2026-09-04T07:23:12Z</time>
</trkpt>
<trkpt lat="46.584310000" lon="-72.337090000">
<ele>0</ele>
<time>2026-09-04T07:23:13Z</time>
</trkpt>
<trkpt lat="46.584110000" lon="-72.337290000">
<ele>0</ele>
<time>2026-09-04T07:23:14Z</time>
</trkpt>
<trkpt lat="46.584110000" lon="-72.337290000">
<ele>0</ele>
<time>2026-09-04T07:23:15Z</time>
</trkpt>
<trkpt lat="46.584830000" lon="-72.336540000">
<ele>0</ele>
<time>2026-09-04T07:23:16Z</time>
</trkpt>
<trkpt lat="46.584830000" lon="-72.336540000">
<ele>0</ele>
<time>2026-09-04T07:23:17Z</time>
</trkpt>
<trkpt lat="46.585630000" lon="-72.335650000">
<ele>0</ele>
<time>2026-09-04T07:23:18Z</time>
</trkpt>
<trkpt lat="46.585630000" lon="-72.335650000">
<ele>0</ele>
<time>2026-09-04T07:23:19Z</time>
</trkpt>
<trkpt lat="46.585770000" lon="-72.335510000">
<ele>0</ele>
<time>2026-09-04T07:23:20Z</time>
</trkpt>
<trkpt lat="46.586100000" lon="-72.335240000">
<ele>0</ele>
<time>2026-09-04T07:23:21Z</time>
</trkpt>
<trkpt lat="46.586420000" lon="-72.335060000">
<ele>0</ele>
<time>2026-09-04T07:23:22Z</time>
</trkpt>
<trkpt lat="46.586970000" lon="-72.334820000">
<ele>0</ele>
<time>2026-09-04T07:23:23Z</time>
</trkpt>
<trkpt lat="46.587260000" lon="-72.334630000">
<ele>0</ele>
<time>2026-09-04T07:23:24Z</time>
</trkpt>
<trkpt lat="46.587590000" lon="-72.334340000">
<ele>0</ele>
<time>2026-09-04T07:23:25Z</time>
</trkpt>
<trkpt lat="46.587770000" lon="-72.334110000">
<ele>0</ele>
<time>2026-09-04T07:23:26Z</time>
</trkpt>
<trkpt lat="46.587890000" lon="-72.333920000">
<ele>0</ele>
<time>2026-09-04T07:23:27Z</time>
</trkpt>
<trkpt lat="46.588050000" lon="-72.333620000">
<ele>0</ele>
<time>2026-09-04T07:23:28Z</time>
</trkpt>
<trkpt lat="46.588730000" lon="-72.332220000">
<ele>0</ele>
<time>2026-09-04T07:23:29Z</time>
</trkpt>
<trkpt lat="46.589640000" lon="-72.330330000">
<ele>0</ele>
<time>2026-09-04T07:23:30Z</time>
</trkpt>
<trkpt lat="46.589910000" lon="-72.329790000">
<ele>0</ele>
<time>2026-09-04T07:23:31Z</time>
</trkpt>
<trkpt lat="46.590230000" lon="-72.329260000">
<ele>0</ele>
<time>2026-09-04T07:23:32Z</time>
</trkpt>
<trkpt lat="46.591920000" lon="-72.327020000">
<ele>0</ele>
<time>2026-09-04T07:23:33Z</time>
</trkpt>
<trkpt lat="46.594730000" lon="-72.323250000">
<ele>0</ele>
<time>2026-09-04T07:23:34Z</time>
</trkpt>
<trkpt lat="46.597700000" lon="-72.319330000">
<ele>0</ele>
<time>2026-09-04T07:23:35Z</time>
</trkpt>
<trkpt lat="46.603570000" lon="-72.311340000">
<ele>0</ele>
<time>2026-09-04T07:23:36Z</time>
</trkpt>
<trkpt lat="46.604860000" lon="-72.309560000">
<ele>0</ele>
<time>2026-09-04T07:23:37Z</time>
</trkpt>
<trkpt lat="46.606140000" lon="-72.307810000">
<ele>0</ele>
<time>2026-09-04T07:23:38Z</time>
</trkpt>
<trkpt lat="46.608960000" lon="-72.303630000">
<ele>0</ele>
<time>2026-09-04T07:23:39Z</time>
</trkpt>
<trkpt lat="46.610080000" lon="-72.301960000">
<ele>0</ele>
<time>2026-09-04T07:23:40Z</time>
</trkpt>
<trkpt lat="46.611350000" lon="-72.300070000">
<ele>0</ele>
<time>2026-09-04T07:23:41Z</time>
</trkpt>
<trkpt lat="46.612080000" lon="-72.298940000">
<ele>0</ele>
<time>2026-09-04T07:23:42Z</time>
</trkpt>
<trkpt lat="46.612940000" lon="-72.297600000">
<ele>0</ele>
<time>2026-09-04T07:23:43Z</time>
</trkpt>
<trkpt lat="46.613570000" lon="-72.296620000">
<ele>0</ele>
<time>2026-09-04T07:23:44Z</time>
</trkpt>
<trkpt lat="46.614830000" lon="-72.294680000">
<ele>0</ele>
<time>2026-09-04T07:23:45Z</time>
</trkpt>
<trkpt lat="46.614830000" lon="-72.294680000">
<ele>0</ele>
<time>2026-09-04T07:23:46Z</time>
</trkpt>
<trkpt lat="46.616240000" lon="-72.292500000">
<ele>0</ele>
<time>2026-09-04T07:23:47Z</time>
</trkpt>
<trkpt lat="46.618010000" lon="-72.289850000">
<ele>0</ele>
<time>2026-09-04T07:23:48Z</time>
</trkpt>
<trkpt lat="46.618870000" lon="-72.288490000">
<ele>0</ele>
<time>2026-09-04T07:23:49Z</time>
</trkpt>
<trkpt lat="46.619410000" lon="-72.287660000">
<ele>0</ele>
<time>2026-09-04T07:23:50Z</time>
</trkpt>
<trkpt lat="46.620790000" lon="-72.285600000">
<ele>0</ele>
<time>2026-09-04T07:23:51Z</time>
</trkpt>
<trkpt lat="46.624240000" lon="-72.280400000">
<ele>0</ele>
<time>2026-09-04T07:23:52Z</time>
</trkpt>
<trkpt lat="46.624540000" lon="-72.279930000">
<ele>0</ele>
<time>2026-09-04T07:23:53Z</time>
</trkpt>
<trkpt lat="46.624710000" lon="-72.279600000">
<ele>0</ele>
<time>2026-09-04T07:23:54Z</time>
</trkpt>
<trkpt lat="46.624920000" lon="-72.279090000">
<ele>0</ele>
<time>2026-09-04T07:23:55Z</time>
</trkpt>
<trkpt lat="46.625070000" lon="-72.278570000">
<ele>0</ele>
<time>2026-09-04T07:23:56Z</time>
</trkpt>
<trkpt lat="46.625170000" lon="-72.278190000">
<ele>0</ele>
<time>2026-09-04T07:23:57Z</time>
</trkpt>
<trkpt lat="46.625190000" lon="-72.277720000">
<ele>0</ele>
<time>2026-09-04T07:23:58Z</time>
</trkpt>
<trkpt lat="46.625190000" lon="-72.276900000">
<ele>0</ele>
<time>2026-09-04T07:23:59Z</time>
</trkpt>
<trkpt lat="46.625140000" lon="-72.276510000">
<ele>0</ele>
<time>2026-09-04T07:24:00Z</time>
</trkpt>
<trkpt lat="46.625050000" lon="-72.276080000">
<ele>0</ele>
<time>2026-09-04T07:24:01Z</time>
</trkpt>
<trkpt lat="46.624830000" lon="-72.275420000">
<ele>0</ele>
<time>2026-09-04T07:24:02Z</time>
</trkpt>
<trkpt lat="46.624740000" lon="-72.275200000">
<ele>0</ele>
<time>2026-09-04T07:24:03Z</time>
</trkpt>
<trkpt lat="46.624500000" lon="-72.274780000">
<ele>0</ele>
<time>2026-09-04T07:24:04Z</time>
</trkpt>
<trkpt lat="46.622980000" lon="-72.272580000">
<ele>0</ele>
<time>2026-09-04T07:24:05Z</time>
</trkpt>
<trkpt lat="46.622790000" lon="-72.272290000">
<ele>0</ele>
<time>2026-09-04T07:24:06Z</time>
</trkpt>
<trkpt lat="46.622490000" lon="-72.271690000">
<ele>0</ele>
<time>2026-09-04T07:24:07Z</time>
</trkpt>
<trkpt lat="46.622300000" lon="-72.271120000">
<ele>0</ele>
<time>2026-09-04T07:24:08Z</time>
</trkpt>
<trkpt lat="46.622180000" lon="-72.270750000">
<ele>0</ele>
<time>2026-09-04T07:24:09Z</time>
</trkpt>
<trkpt lat="46.621920000" lon="-72.269640000">
<ele>0</ele>
<time>2026-09-04T07:24:10Z</time>
</trkpt>
<trkpt lat="46.621570000" lon="-72.268010000">
<ele>0</ele>
<time>2026-09-04T07:24:11Z</time>
</trkpt>
<trkpt lat="46.621170000" lon="-72.266670000">
<ele>0</ele>
<time>2026-09-04T07:24:12Z</time>
</trkpt>
<trkpt lat="46.621170000" lon="-72.266670000">
<ele>0</ele>
<time>2026-09-04T07:24:13Z</time>
</trkpt>
<trkpt lat="46.620780000" lon="-72.265590000">
<ele>0</ele>
<time>2026-09-04T07:24:14Z</time>
</trkpt>
<trkpt lat="46.620300000" lon="-72.264420000">
<ele>0</ele>
<time>2026-09-04T07:24:15Z</time>
</trkpt>
<trkpt lat="46.619920000" lon="-72.263610000">
<ele>0</ele>
<time>2026-09-04T07:24:16Z</time>
</trkpt>
<trkpt lat="46.619250000" lon="-72.262440000">
<ele>0</ele>
<time>2026-09-04T07:24:17Z</time>
</trkpt>
<trkpt lat="46.618810000" lon="-72.261730000">
<ele>0</ele>
<time>2026-09-04T07:24:18Z</time>
</trkpt>
<trkpt lat="46.618580000" lon="-72.261400000">
<ele>0</ele>
<time>2026-09-04T07:24:19Z</time>
</trkpt>
<trkpt lat="46.617610000" lon="-72.260060000">
<ele>0</ele>
<time>2026-09-04T07:24:20Z</time>
</trkpt>
<trkpt lat="46.616440000" lon="-72.258450000">
<ele>0</ele>
<time>2026-09-04T07:24:21Z</time>
</trkpt>
<trkpt lat="46.615500000" lon="-72.257110000">
<ele>0</ele>
<time>2026-09-04T07:24:22Z</time>
</trkpt>
<trkpt lat="46.614600000" lon="-72.255830000">
<ele>0</ele>
<time>2026-09-04T07:24:23Z</time>
</trkpt>
<trkpt lat="46.612480000" lon="-72.252940000">
<ele>0</ele>
<time>2026-09-04T07:24:24Z</time>
</trkpt>
<trkpt lat="46.611150000" lon="-72.251020000">
<ele>0</ele>
<time>2026-09-04T07:24:25Z</time>
</trkpt>
<trkpt lat="46.610810000" lon="-72.250590000">
<ele>0</ele>
<time>2026-09-04T07:24:26Z</time>
</trkpt>
<trkpt lat="46.610430000" lon="-72.250150000">
<ele>0</ele>
<time>2026-09-04T07:24:27Z</time>
</trkpt>
<trkpt lat="46.609990000" lon="-72.249760000">
<ele>0</ele>
<time>2026-09-04T07:24:28Z</time>
</trkpt>
<trkpt lat="46.609530000" lon="-72.249430000">
<ele>0</ele>
<time>2026-09-04T07:24:29Z</time>
</trkpt>
<trkpt lat="46.609020000" lon="-72.249160000">
<ele>0</ele>
<time>2026-09-04T07:24:30Z</time>
</trkpt>
<trkpt lat="46.608310000" lon="-72.248840000">
<ele>0</ele>
<time>2026-09-04T07:24:31Z</time>
</trkpt>
<trkpt lat="46.607800000" lon="-72.248590000">
<ele>0</ele>
<time>2026-09-04T07:24:32Z</time>
</trkpt>
<trkpt lat="46.607570000" lon="-72.248440000">
<ele>0</ele>
<time>2026-09-04T07:24:33Z</time>
</trkpt>
<trkpt lat="46.607240000" lon="-72.248200000">
<ele>0</ele>
<time>2026-09-04T07:24:34Z</time>
</trkpt>
<trkpt lat="46.606850000" lon="-72.247870000">
<ele>0</ele>
<time>2026-09-04T07:24:35Z</time>
</trkpt>
<trkpt lat="46.606400000" lon="-72.247380000">
<ele>0</ele>
<time>2026-09-04T07:24:36Z</time>
</trkpt>
<trkpt lat="46.606200000" lon="-72.247140000">
<ele>0</ele>
<time>2026-09-04T07:24:37Z</time>
</trkpt>
<trkpt lat="46.605930000" lon="-72.246760000">
<ele>0</ele>
<time>2026-09-04T07:24:38Z</time>
</trkpt>
<trkpt lat="46.605370000" lon="-72.245720000">
<ele>0</ele>
<time>2026-09-04T07:24:39Z</time>
</trkpt>
<trkpt lat="46.602690000" lon="-72.239600000">
<ele>0</ele>
<time>2026-09-04T07:24:40Z</time>
</trkpt>
<trkpt lat="46.602340000" lon="-72.238810000">
<ele>0</ele>
<time>2026-09-04T07:24:41Z</time>
</trkpt>
<trkpt lat="46.601960000" lon="-72.238080000">
<ele>0</ele>
<time>2026-09-04T07:24:42Z</time>
</trkpt>
<trkpt lat="46.601590000" lon="-72.237500000">
<ele>0</ele>
<time>2026-09-04T07:24:43Z</time>
</trkpt>
<trkpt lat="46.600660000" lon="-72.236210000">
<ele>0</ele>
<time>2026-09-04T07:24:44Z</time>
</trkpt>
<trkpt lat="46.598420000" lon="-72.233220000">
<ele>0</ele>
<time>2026-09-04T07:24:45Z</time>
</trkpt>
<trkpt lat="46.597020000" lon="-72.231320000">
<ele>0</ele>
<time>2026-09-04T07:24:46Z</time>
</trkpt>
<trkpt lat="46.595530000" lon="-72.229340000">
<ele>0</ele>
<time>2026-09-04T07:24:47Z</time>
</trkpt>
<trkpt lat="46.595290000" lon="-72.229060000">
<ele>0</ele>
<time>2026-09-04T07:24:48Z</time>
</trkpt>
<trkpt lat="46.594990000" lon="-72.228790000">
<ele>0</ele>
<time>2026-09-04T07:24:49Z</time>
</trkpt>
<trkpt lat="46.594680000" lon="-72.228550000">
<ele>0</ele>
<time>2026-09-04T07:24:50Z</time>
</trkpt>
<trkpt lat="46.594420000" lon="-72.228390000">
<ele>0</ele>
<time>2026-09-04T07:24:51Z</time>
</trkpt>
<trkpt lat="46.594120000" lon="-72.228240000">
<ele>0</ele>
<time>2026-09-04T07:24:52Z</time>
</trkpt>
<trkpt lat="46.594230000" lon="-72.227990000">
<ele>0</ele>
<time>2026-09-04T07:24:53Z</time>
</trkpt>
<trkpt lat="46.594420000" lon="-72.227590000">
<ele>0</ele>
<time>2026-09-04T07:24:54Z</time>
</trkpt>
<trkpt lat="46.594540000" lon="-72.227420000">
<ele>0</ele>
<time>2026-09-04T07:24:55Z</time>
</trkpt>
<trkpt lat="46.594580000" lon="-72.227370000">
<ele>0</ele>
<time>2026-09-04T07:24:56Z</time>
</trkpt>
<trkpt lat="46.594580000" lon="-72.227370000">
<ele>0</ele>
<time>2026-09-04T07:24:57Z</time>
</trkpt>
<trkpt lat="46.595060000" lon="-72.226770000">
<ele>0</ele>
<time>2026-09-04T07:24:58Z</time>
</trkpt>
<trkpt lat="46.595370000" lon="-72.226190000">
<ele>0</ele>
<time>2026-09-04T07:24:59Z</time>
</trkpt>
<trkpt lat="46.595550000" lon="-72.225820000">
<ele>0</ele>
<time>2026-09-04T07:25:00Z</time>
</trkpt>
<trkpt lat="46.595690000" lon="-72.225460000">
<ele>0</ele>
<time>2026-09-04T07:25:01Z</time>
</trkpt>
<trkpt lat="46.596120000" lon="-72.224180000">
<ele>0</ele>
<time>2026-09-04T07:25:02Z</time>
</trkpt>
<trkpt lat="46.596800000" lon="-72.222190000">
<ele>0</ele>
<time>2026-09-04T07:25:03Z</time>
</trkpt>
<trkpt lat="46.597010000" lon="-72.221650000">
<ele>0</ele>
<time>2026-09-04T07:25:04Z</time>
</trkpt>
<trkpt lat="46.597180000" lon="-72.221300000">
<ele>0</ele>
<time>2026-09-04T07:25:05Z</time>
</trkpt>
<trkpt lat="46.597470000" lon="-72.220780000">
<ele>0</ele>
<time>2026-09-04T07:25:06Z</time>
</trkpt>
<trkpt lat="46.597770000" lon="-72.220330000">
<ele>0</ele>
<time>2026-09-04T07:25:07Z</time>
</trkpt>
<trkpt lat="46.598340000" lon="-72.219610000">
<ele>0</ele>
<time>2026-09-04T07:25:08Z</time>
</trkpt>
<trkpt lat="46.599270000" lon="-72.218540000">
<ele>0</ele>
<time>2026-09-04T07:25:09Z</time>
</trkpt>
<trkpt lat="46.599820000" lon="-72.217990000">
<ele>0</ele>
<time>2026-09-04T07:25:10Z</time>
</trkpt>
<trkpt lat="46.600060000" lon="-72.217820000">
<ele>0</ele>
<time>2026-09-04T07:25:11Z</time>
</trkpt>
<trkpt lat="46.600330000" lon="-72.217730000">
<ele>0</ele>
<time>2026-09-04T07:25:12Z</time>
</trkpt>
<trkpt lat="46.600740000" lon="-72.217680000">
<ele>0</ele>
<time>2026-09-04T07:25:13Z</time>
</trkpt>
<trkpt lat="46.601620000" lon="-72.217800000">
<ele>0</ele>
<time>2026-09-04T07:25:14Z</time>
</trkpt>
<trkpt lat="46.601890000" lon="-72.217820000">
<ele>0</ele>
<time>2026-09-04T07:25:15Z</time>
</trkpt>
<trkpt lat="46.602100000" lon="-72.217780000">
<ele>0</ele>
<time>2026-09-04T07:25:16Z</time>
</trkpt>
<trkpt lat="46.602330000" lon="-72.217660000">
<ele>0</ele>
<time>2026-09-04T07:25:17Z</time>
</trkpt>
<trkpt lat="46.603250000" lon="-72.216940000">
<ele>0</ele>
<time>2026-09-04T07:25:18Z</time>
</trkpt>
<trkpt lat="46.603620000" lon="-72.216630000">
<ele>0</ele>
<time>2026-09-04T07:25:19Z</time>
</trkpt>
<trkpt lat="46.603820000" lon="-72.216420000">
<ele>0</ele>
<time>2026-09-04T07:25:20Z</time>
</trkpt>
<trkpt lat="46.603960000" lon="-72.216220000">
<ele>0</ele>
<time>2026-09-04T07:25:21Z</time>
</trkpt>
<trkpt lat="46.604120000" lon="-72.215930000">
<ele>0</ele>
<time>2026-09-04T07:25:22Z</time>
</trkpt>
<trkpt lat="46.604260000" lon="-72.215560000">
<ele>0</ele>
<time>2026-09-04T07:25:23Z</time>
</trkpt>
<trkpt lat="46.604340000" lon="-72.215290000">
<ele>0</ele>
<time>2026-09-04T07:25:24Z</time>
</trkpt>
<trkpt lat="46.604640000" lon="-72.214070000">
<ele>0</ele>
<time>2026-09-04T07:25:25Z</time>
</trkpt>
<trkpt lat="46.604860000" lon="-72.213290000">
<ele>0</ele>
<time>2026-09-04T07:25:26Z</time>
</trkpt>
<trkpt lat="46.605010000" lon="-72.213000000">
<ele>0</ele>
<time>2026-09-04T07:25:27Z</time>
</trkpt>
<trkpt lat="46.605360000" lon="-72.212460000">
<ele>0</ele>
<time>2026-09-04T07:25:28Z</time>
</trkpt>
<trkpt lat="46.605620000" lon="-72.212090000">
<ele>0</ele>
<time>2026-09-04T07:25:29Z</time>
</trkpt>
<trkpt lat="46.606260000" lon="-72.211280000">
<ele>0</ele>
<time>2026-09-04T07:25:30Z</time>
</trkpt>
<trkpt lat="46.607230000" lon="-72.210190000">
<ele>0</ele>
<time>2026-09-04T07:25:31Z</time>
</trkpt>
<trkpt lat="46.608070000" lon="-72.209210000">
<ele>0</ele>
<time>2026-09-04T07:25:32Z</time>
</trkpt>
<trkpt lat="46.608930000" lon="-72.208260000">
<ele>0</ele>
<time>2026-09-04T07:25:33Z</time>
</trkpt>
<trkpt lat="46.609310000" lon="-72.207920000">
<ele>0</ele>
<time>2026-09-04T07:25:34Z</time>
</trkpt>
<trkpt lat="46.609740000" lon="-72.207700000">
<ele>0</ele>
<time>2026-09-04T07:25:35Z</time>
</trkpt>
<trkpt lat="46.610160000" lon="-72.207540000">
<ele>0</ele>
<time>2026-09-04T07:25:36Z</time>
</trkpt>
<trkpt lat="46.610580000" lon="-72.207430000">
<ele>0</ele>
<time>2026-09-04T07:25:37Z</time>
</trkpt>
<trkpt lat="46.611020000" lon="-72.207360000">
<ele>0</ele>
<time>2026-09-04T07:25:38Z</time>
</trkpt>
<trkpt lat="46.613490000" lon="-72.207180000">
<ele>0</ele>
<time>2026-09-04T07:25:39Z</time>
</trkpt>
<trkpt lat="46.614550000" lon="-72.207030000">
<ele>0</ele>
<time>2026-09-04T07:25:40Z</time>
</trkpt>
<trkpt lat="46.615020000" lon="-72.206970000">
<ele>0</ele>
<time>2026-09-04T07:25:41Z</time>
</trkpt>
<trkpt lat="46.615400000" lon="-72.206870000">
<ele>0</ele>
<time>2026-09-04T07:25:42Z</time>
</trkpt>
<trkpt lat="46.615610000" lon="-72.206810000">
<ele>0</ele>
<time>2026-09-04T07:25:43Z</time>
</trkpt>
<trkpt lat="46.615790000" lon="-72.206750000">
<ele>0</ele>
<time>2026-09-04T07:25:44Z</time>
</trkpt>
<trkpt lat="46.616210000" lon="-72.206560000">
<ele>0</ele>
<time>2026-09-04T07:25:45Z</time>
</trkpt>
<trkpt lat="46.616790000" lon="-72.206160000">
<ele>0</ele>
<time>2026-09-04T07:25:46Z</time>
</trkpt>
<trkpt lat="46.617120000" lon="-72.205930000">
<ele>0</ele>
<time>2026-09-04T07:25:47Z</time>
</trkpt>
<trkpt lat="46.617490000" lon="-72.205740000">
<ele>0</ele>
<time>2026-09-04T07:25:48Z</time>
</trkpt>
<trkpt lat="46.617850000" lon="-72.205630000">
<ele>0</ele>
<time>2026-09-04T07:25:49Z</time>
</trkpt>
<trkpt lat="46.618200000" lon="-72.205570000">
<ele>0</ele>
<time>2026-09-04T07:25:50Z</time>
</trkpt>
<trkpt lat="46.618610000" lon="-72.205570000">
<ele>0</ele>
<time>2026-09-04T07:25:51Z</time>
</trkpt>
<trkpt lat="46.618860000" lon="-72.205600000">
<ele>0</ele>
<time>2026-09-04T07:25:52Z</time>
</trkpt>
<trkpt lat="46.619220000" lon="-72.205720000">
<ele>0</ele>
<time>2026-09-04T07:25:53Z</time>
</trkpt>
<trkpt lat="46.619940000" lon="-72.206030000">
<ele>0</ele>
<time>2026-09-04T07:25:54Z</time>
</trkpt>
<trkpt lat="46.620770000" lon="-72.206410000">
<ele>0</ele>
<time>2026-09-04T07:25:55Z</time>
</trkpt>
<trkpt lat="46.621480000" lon="-72.206590000">
<ele>0</ele>
<time>2026-09-04T07:25:56Z</time>
</trkpt>
<trkpt lat="46.622650000" lon="-72.206910000">
<ele>0</ele>
<time>2026-09-04T07:25:57Z</time>
</trkpt>
<trkpt lat="46.623000000" lon="-72.206980000">
<ele>0</ele>
<time>2026-09-04T07:25:58Z</time>
</trkpt>
<trkpt lat="46.623460000" lon="-72.207000000">
<ele>0</ele>
<time>2026-09-04T07:25:59Z</time>
</trkpt>
<trkpt lat="46.623730000" lon="-72.206950000">
<ele>0</ele>
<time>2026-09-04T07:26:00Z</time>
</trkpt>
<trkpt lat="46.623900000" lon="-72.206900000">
<ele>0</ele>
<time>2026-09-04T07:26:01Z</time>
</trkpt>
<trkpt lat="46.624160000" lon="-72.206790000">
<ele>0</ele>
<time>2026-09-04T07:26:02Z</time>
</trkpt>
<trkpt lat="46.624440000" lon="-72.206610000">
<ele>0</ele>
<time>2026-09-04T07:26:03Z</time>
</trkpt>
<trkpt lat="46.624720000" lon="-72.206380000">
<ele>0</ele>
<time>2026-09-04T07:26:04Z</time>
</trkpt>
<trkpt lat="46.624870000" lon="-72.206220000">
<ele>0</ele>
<time>2026-09-04T07:26:05Z</time>
</trkpt>
<trkpt lat="46.625160000" lon="-72.205850000">
<ele>0</ele>
<time>2026-09-04T07:26:06Z</time>
</trkpt>
<trkpt lat="46.625500000" lon="-72.205290000">
<ele>0</ele>
<time>2026-09-04T07:26:07Z</time>
</trkpt>
<trkpt lat="46.625810000" lon="-72.204690000">
<ele>0</ele>
<time>2026-09-04T07:26:08Z</time>
</trkpt>
<trkpt lat="46.626330000" lon="-72.203590000">
<ele>0</ele>
<time>2026-09-04T07:26:09Z</time>
</trkpt>
<trkpt lat="46.626890000" lon="-72.202210000">
<ele>0</ele>
<time>2026-09-04T07:26:10Z</time>
</trkpt>
<trkpt lat="46.627440000" lon="-72.200630000">
<ele>0</ele>
<time>2026-09-04T07:26:11Z</time>
</trkpt>
<trkpt lat="46.627590000" lon="-72.200090000">
<ele>0</ele>
<time>2026-09-04T07:26:12Z</time>
</trkpt>
<trkpt lat="46.627770000" lon="-72.199390000">
<ele>0</ele>
<time>2026-09-04T07:26:13Z</time>
</trkpt>
<trkpt lat="46.627920000" lon="-72.198620000">
<ele>0</ele>
<time>2026-09-04T07:26:14Z</time>
</trkpt>
<trkpt lat="46.628010000" lon="-72.198010000">
<ele>0</ele>
<time>2026-09-04T07:26:15Z</time>
</trkpt>
<trkpt lat="46.628160000" lon="-72.196560000">
<ele>0</ele>
<time>2026-09-04T07:26:16Z</time>
</trkpt>
<trkpt lat="46.628460000" lon="-72.193500000">
<ele>0</ele>
<time>2026-09-04T07:26:17Z</time>
</trkpt>
<trkpt lat="46.628530000" lon="-72.192090000">
<ele>0</ele>
<time>2026-09-04T07:26:18Z</time>
</trkpt>
<trkpt lat="46.628540000" lon="-72.191630000">
<ele>0</ele>
<time>2026-09-04T07:26:19Z</time>
</trkpt>
<trkpt lat="46.628620000" lon="-72.190930000">
<ele>0</ele>
<time>2026-09-04T07:26:20Z</time>
</trkpt>
<trkpt lat="46.628700000" lon="-72.190400000">
<ele>0</ele>
<time>2026-09-04T07:26:21Z</time>
</trkpt>
<trkpt lat="46.628930000" lon="-72.189280000">
<ele>0</ele>
<time>2026-09-04T07:26:22Z</time>
</trkpt>
<trkpt lat="46.629020000" lon="-72.188910000">
<ele>0</ele>
<time>2026-09-04T07:26:23Z</time>
</trkpt>
<trkpt lat="46.629180000" lon="-72.188380000">
<ele>0</ele>
<time>2026-09-04T07:26:24Z</time>
</trkpt>
<trkpt lat="46.629380000" lon="-72.187890000">
<ele>0</ele>
<time>2026-09-04T07:26:25Z</time>
</trkpt>
<trkpt lat="46.629510000" lon="-72.187670000">
<ele>0</ele>
<time>2026-09-04T07:26:26Z</time>
</trkpt>
<trkpt lat="46.629750000" lon="-72.187280000">
<ele>0</ele>
<time>2026-09-04T07:26:27Z</time>
</trkpt>
<trkpt lat="46.630000000" lon="-72.186910000">
<ele>0</ele>
<time>2026-09-04T07:26:28Z</time>
</trkpt>
<trkpt lat="46.630650000" lon="-72.186010000">
<ele>0</ele>
<time>2026-09-04T07:26:29Z</time>
</trkpt>
<trkpt lat="46.631110000" lon="-72.185320000">
<ele>0</ele>
<time>2026-09-04T07:26:30Z</time>
</trkpt>
<trkpt lat="46.631240000" lon="-72.185050000">
<ele>0</ele>
<time>2026-09-04T07:26:31Z</time>
</trkpt>
<trkpt lat="46.631400000" lon="-72.184500000">
<ele>0</ele>
<time>2026-09-04T07:26:32Z</time>
</trkpt>
<trkpt lat="46.631510000" lon="-72.183790000">
<ele>0</ele>
<time>2026-09-04T07:26:33Z</time>
</trkpt>
<trkpt lat="46.631670000" lon="-72.182490000">
<ele>0</ele>
<time>2026-09-04T07:26:34Z</time>
</trkpt>
<trkpt lat="46.631740000" lon="-72.182130000">
<ele>0</ele>
<time>2026-09-04T07:26:35Z</time>
</trkpt>
<trkpt lat="46.631850000" lon="-72.181700000">
<ele>0</ele>
<time>2026-09-04T07:26:36Z</time>
</trkpt>
<trkpt lat="46.631990000" lon="-72.181310000">
<ele>0</ele>
<time>2026-09-04T07:26:37Z</time>
</trkpt>
<trkpt lat="46.632140000" lon="-72.180990000">
<ele>0</ele>
<time>2026-09-04T07:26:38Z</time>
</trkpt>
<trkpt lat="46.632670000" lon="-72.180060000">
<ele>0</ele>
<time>2026-09-04T07:26:39Z</time>
</trkpt>
<trkpt lat="46.633140000" lon="-72.179320000">
<ele>0</ele>
<time>2026-09-04T07:26:40Z</time>
</trkpt>
<trkpt lat="46.633420000" lon="-72.178910000">
<ele>0</ele>
<time>2026-09-04T07:26:41Z</time>
</trkpt>
<trkpt lat="46.633770000" lon="-72.178440000">
<ele>0</ele>
<time>2026-09-04T07:26:42Z</time>
</trkpt>
<trkpt lat="46.633950000" lon="-72.178090000">
<ele>0</ele>
<time>2026-09-04T07:26:43Z</time>
</trkpt>
<trkpt lat="46.634030000" lon="-72.177830000">
<ele>0</ele>
<time>2026-09-04T07:26:44Z</time>
</trkpt>
<trkpt lat="46.634060000" lon="-72.177670000">
<ele>0</ele>
<time>2026-09-04T07:26:45Z</time>
</trkpt>
<trkpt lat="46.634110000" lon="-72.176840000">
<ele>0</ele>
<time>2026-09-04T07:26:46Z</time>
</trkpt>
<trkpt lat="46.634130000" lon="-72.175910000">
<ele>0</ele>
<time>2026-09-04T07:26:47Z</time>
</trkpt>
<trkpt lat="46.634200000" lon="-72.174550000">
<ele>0</ele>
<time>2026-09-04T07:26:48Z</time>
</trkpt>
<trkpt lat="46.634340000" lon="-72.172780000">
<ele>0</ele>
<time>2026-09-04T07:26:49Z</time>
</trkpt>
<trkpt lat="46.634410000" lon="-72.172050000">
<ele>0</ele>
<time>2026-09-04T07:26:50Z</time>
</trkpt>
<trkpt lat="46.634460000" lon="-72.171700000">
<ele>0</ele>
<time>2026-09-04T07:26:51Z</time>
</trkpt>
<trkpt lat="46.634610000" lon="-72.171230000">
<ele>0</ele>
<time>2026-09-04T07:26:52Z</time>
</trkpt>
<trkpt lat="46.634780000" lon="-72.170850000">
<ele>0</ele>
<time>2026-09-04T07:26:53Z</time>
</trkpt>
<trkpt lat="46.635130000" lon="-72.170320000">
<ele>0</ele>
<time>2026-09-04T07:26:54Z</time>
</trkpt>
<trkpt lat="46.635460000" lon="-72.169880000">
<ele>0</ele>
<time>2026-09-04T07:26:55Z</time>
</trkpt>
<trkpt lat="46.635700000" lon="-72.169490000">
<ele>0</ele>
<time>2026-09-04T07:26:56Z</time>
</trkpt>
<trkpt lat="46.635810000" lon="-72.169280000">
<ele>0</ele>
<time>2026-09-04T07:26:57Z</time>
</trkpt>
<trkpt lat="46.636020000" lon="-72.168780000">
<ele>0</ele>
<time>2026-09-04T07:26:58Z</time>
</trkpt>
<trkpt lat="46.636270000" lon="-72.167970000">
<ele>0</ele>
<time>2026-09-04T07:26:59Z</time>
</trkpt>
<trkpt lat="46.636440000" lon="-72.167210000">
<ele>0</ele>
<time>2026-09-04T07:27:00Z</time>
</trkpt>
<trkpt lat="46.636480000" lon="-72.166590000">
<ele>0</ele>
<time>2026-09-04T07:27:01Z</time>
</trkpt>
<trkpt lat="46.636490000" lon="-72.166240000">
<ele>0</ele>
<time>2026-09-04T07:27:02Z</time>
</trkpt>
<trkpt lat="46.636530000" lon="-72.165040000">
<ele>0</ele>
<time>2026-09-04T07:27:03Z</time>
</trkpt>
<trkpt lat="46.636550000" lon="-72.164780000">
<ele>0</ele>
<time>2026-09-04T07:27:04Z</time>
</trkpt>
<trkpt lat="46.636610000" lon="-72.164390000">
<ele>0</ele>
<time>2026-09-04T07:27:05Z</time>
</trkpt>
<trkpt lat="46.636880000" lon="-72.163330000">
<ele>0</ele>
<time>2026-09-04T07:27:06Z</time>
</trkpt>
<trkpt lat="46.637120000" lon="-72.162350000">
<ele>0</ele>
<time>2026-09-04T07:27:07Z</time>
</trkpt>
<trkpt lat="46.637470000" lon="-72.160970000">
<ele>0</ele>
<time>2026-09-04T07:27:08Z</time>
</trkpt>
<trkpt lat="46.637610000" lon="-72.160480000">
<ele>0</ele>
<time>2026-09-04T07:27:09Z</time>
</trkpt>
<trkpt lat="46.637790000" lon="-72.160030000">
<ele>0</ele>
<time>2026-09-04T07:27:10Z</time>
</trkpt>
<trkpt lat="46.638080000" lon="-72.159400000">
<ele>0</ele>
<time>2026-09-04T07:27:11Z</time>
</trkpt>
<trkpt lat="46.638390000" lon="-72.158860000">
<ele>0</ele>
<time>2026-09-04T07:27:12Z</time>
</trkpt>
<trkpt lat="46.638790000" lon="-72.158320000">
<ele>0</ele>
<time>2026-09-04T07:27:13Z</time>
</trkpt>
<trkpt lat="46.639070000" lon="-72.157950000">
<ele>0</ele>
<time>2026-09-04T07:27:14Z</time>
</trkpt>
<trkpt lat="46.639390000" lon="-72.157430000">
<ele>0</ele>
<time>2026-09-04T07:27:15Z</time>
</trkpt>
<trkpt lat="46.639720000" lon="-72.156760000">
<ele>0</ele>
<time>2026-09-04T07:27:16Z</time>
</trkpt>
<trkpt lat="46.640390000" lon="-72.155370000">
<ele>0</ele>
<time>2026-09-04T07:27:17Z</time>
</trkpt>
<trkpt lat="46.640600000" lon="-72.154830000">
<ele>0</ele>
<time>2026-09-04T07:27:18Z</time>
</trkpt>
<trkpt lat="46.640710000" lon="-72.154460000">
<ele>0</ele>
<time>2026-09-04T07:27:19Z</time>
</trkpt>
<trkpt lat="46.640870000" lon="-72.153710000">
<ele>0</ele>
<time>2026-09-04T07:27:20Z</time>
</trkpt>
<trkpt lat="46.640970000" lon="-72.152830000">
<ele>0</ele>
<time>2026-09-04T07:27:21Z</time>
</trkpt>
<trkpt lat="46.641300000" lon="-72.149600000">
<ele>0</ele>
<time>2026-09-04T07:27:22Z</time>
</trkpt>
<trkpt lat="46.641380000" lon="-72.148930000">
<ele>0</ele>
<time>2026-09-04T07:27:23Z</time>
</trkpt>
<trkpt lat="46.641480000" lon="-72.148480000">
<ele>0</ele>
<time>2026-09-04T07:27:24Z</time>
</trkpt>
<trkpt lat="46.641580000" lon="-72.148210000">
<ele>0</ele>
<time>2026-09-04T07:27:25Z</time>
</trkpt>
<trkpt lat="46.641650000" lon="-72.148050000">
<ele>0</ele>
<time>2026-09-04T07:27:26Z</time>
</trkpt>
<trkpt lat="46.641780000" lon="-72.147800000">
<ele>0</ele>
<time>2026-09-04T07:27:27Z</time>
</trkpt>
<trkpt lat="46.642010000" lon="-72.147470000">
<ele>0</ele>
<time>2026-09-04T07:27:28Z</time>
</trkpt>
<trkpt lat="46.642130000" lon="-72.147350000">
<ele>0</ele>
<time>2026-09-04T07:27:29Z</time>
</trkpt>
<trkpt lat="46.642360000" lon="-72.147140000">
<ele>0</ele>
<time>2026-09-04T07:27:30Z</time>
</trkpt>
<trkpt lat="46.642620000" lon="-72.146970000">
<ele>0</ele>
<time>2026-09-04T07:27:31Z</time>
</trkpt>
<trkpt lat="46.643370000" lon="-72.146610000">
<ele>0</ele>
<time>2026-09-04T07:27:32Z</time>
</trkpt>
<trkpt lat="46.643540000" lon="-72.146530000">
<ele>0</ele>
<time>2026-09-04T07:27:33Z</time>
</trkpt>
<trkpt lat="46.643710000" lon="-72.146430000">
<ele>0</ele>
<time>2026-09-04T07:27:34Z</time>
</trkpt>
<trkpt lat="46.643880000" lon="-72.146270000">
<ele>0</ele>
<time>2026-09-04T07:27:35Z</time>
</trkpt>
<trkpt lat="46.644000000" lon="-72.146120000">
<ele>0</ele>
<time>2026-09-04T07:27:36Z</time>
</trkpt>
<trkpt lat="46.644160000" lon="-72.145880000">
<ele>0</ele>
<time>2026-09-04T07:27:37Z</time>
</trkpt>
<trkpt lat="46.644960000" lon="-72.144360000">
<ele>0</ele>
<time>2026-09-04T07:27:38Z</time>
</trkpt>
<trkpt lat="46.645770000" lon="-72.142760000">
<ele>0</ele>
<time>2026-09-04T07:27:39Z</time>
</trkpt>
<trkpt lat="46.646130000" lon="-72.142210000">
<ele>0</ele>
<time>2026-09-04T07:27:40Z</time>
</trkpt>
<trkpt lat="46.646260000" lon="-72.142070000">
<ele>0</ele>
<time>2026-09-04T07:27:41Z</time>
</trkpt>
<trkpt lat="46.646440000" lon="-72.141870000">
<ele>0</ele>
<time>2026-09-04T07:27:42Z</time>
</trkpt>
<trkpt lat="46.646620000" lon="-72.141720000">
<ele>0</ele>
<time>2026-09-04T07:27:43Z</time>
</trkpt>
<trkpt lat="46.646910000" lon="-72.141500000">
<ele>0</ele>
<time>2026-09-04T07:27:44Z</time>
</trkpt>
<trkpt lat="46.647220000" lon="-72.141380000">
<ele>0</ele>
<time>2026-09-04T07:27:45Z</time>
</trkpt>
<trkpt lat="46.647540000" lon="-72.141330000">
<ele>0</ele>
<time>2026-09-04T07:27:46Z</time>
</trkpt>
<trkpt lat="46.647800000" lon="-72.141310000">
<ele>0</ele>
<time>2026-09-04T07:27:47Z</time>
</trkpt>
<trkpt lat="46.648110000" lon="-72.141300000">
<ele>0</ele>
<time>2026-09-04T07:27:48Z</time>
</trkpt>
<trkpt lat="46.648260000" lon="-72.141310000">
<ele>0</ele>
<time>2026-09-04T07:27:49Z</time>
</trkpt>
<trkpt lat="46.648700000" lon="-72.141410000">
<ele>0</ele>
<time>2026-09-04T07:27:50Z</time>
</trkpt>
<trkpt lat="46.649890000" lon="-72.141820000">
<ele>0</ele>
<time>2026-09-04T07:27:51Z</time>
</trkpt>
<trkpt lat="46.650730000" lon="-72.142020000">
<ele>0</ele>
<time>2026-09-04T07:27:52Z</time>
</trkpt>
<trkpt lat="46.651310000" lon="-72.142090000">
<ele>0</ele>
<time>2026-09-04T07:27:53Z</time>
</trkpt>
<trkpt lat="46.651660000" lon="-72.142100000">
<ele>0</ele>
<time>2026-09-04T07:27:54Z</time>
</trkpt>
<trkpt lat="46.652020000" lon="-72.142070000">
<ele>0</ele>
<time>2026-09-04T07:27:55Z</time>
</trkpt>
<trkpt lat="46.652200000" lon="-72.142020000">
<ele>0</ele>
<time>2026-09-04T07:27:56Z</time>
</trkpt>
<trkpt lat="46.652430000" lon="-72.141910000">
<ele>0</ele>
<time>2026-09-04T07:27:57Z</time>
</trkpt>
<trkpt lat="46.652650000" lon="-72.141740000">
<ele>0</ele>
<time>2026-09-04T07:27:58Z</time>
</trkpt>
<trkpt lat="46.652950000" lon="-72.141480000">
<ele>0</ele>
<time>2026-09-04T07:27:59Z</time>
</trkpt>
<trkpt lat="46.653470000" lon="-72.140950000">
<ele>0</ele>
<time>2026-09-04T07:28:00Z</time>
</trkpt>
<trkpt lat="46.653900000" lon="-72.140590000">
<ele>0</ele>
<time>2026-09-04T07:28:01Z</time>
</trkpt>
<trkpt lat="46.654260000" lon="-72.140320000">
<ele>0</ele>
<time>2026-09-04T07:28:02Z</time>
</trkpt>
<trkpt lat="46.655080000" lon="-72.139870000">
<ele>0</ele>
<time>2026-09-04T07:28:03Z</time>
</trkpt>
<trkpt lat="46.655270000" lon="-72.139800000">
<ele>0</ele>
<time>2026-09-04T07:28:04Z</time>
</trkpt>
<trkpt lat="46.655400000" lon="-72.139810000">
<ele>0</ele>
<time>2026-09-04T07:28:05Z</time>
</trkpt>
<trkpt lat="46.655590000" lon="-72.139880000">
<ele>0</ele>
<time>2026-09-04T07:28:06Z</time>
</trkpt>
<trkpt lat="46.655580000" lon="-72.140000000">
<ele>0</ele>
<time>2026-09-04T07:28:07Z</time>
</trkpt>
<trkpt lat="46.655600000" lon="-72.140140000">
<ele>0</ele>
<time>2026-09-04T07:28:08Z</time>
</trkpt>
<trkpt lat="46.655650000" lon="-72.140280000">
<ele>0</ele>
<time>2026-09-04T07:28:09Z</time>
</trkpt>
<trkpt lat="46.655760000" lon="-72.140460000">
<ele>0</ele>
<time>2026-09-04T07:28:10Z</time>
</trkpt>
<trkpt lat="46.655760000" lon="-72.140460000">
<ele>0</ele>
<time>2026-09-04T07:28:11Z</time>
</trkpt>
<trkpt lat="46.655930000" lon="-72.140700000">
<ele>0</ele>
<time>2026-09-04T07:28:12Z</time>
</trkpt>
<trkpt lat="46.657110000" lon="-72.142250000">
<ele>0</ele>
<time>2026-09-04T07:28:13Z</time>
</trkpt>
<trkpt lat="46.659070000" lon="-72.144860000">
<ele>0</ele>
<time>2026-09-04T07:28:14Z</time>
</trkpt>
<trkpt lat="46.659550000" lon="-72.145480000">
<ele>0</ele>
<time>2026-09-04T07:28:15Z</time>
</trkpt>
<trkpt lat="46.659640000" lon="-72.145410000">
<ele>0</ele>
<time>2026-09-04T07:28:16Z</time>
</trkpt>
<trkpt lat="46.659640000" lon="-72.145410000">
<ele>0</ele>
<time>2026-09-04T07:28:17Z</time>
</trkpt>
<trkpt lat="46.659550000" lon="-72.145480000">
<ele>0</ele>
<time>2026-09-04T07:28:18Z</time>
</trkpt>
<trkpt lat="46.659070000" lon="-72.144860000">
<ele>0</ele>
<time>2026-09-04T07:28:19Z</time>
</trkpt>
<trkpt lat="46.657110000" lon="-72.142250000">
<ele>0</ele>
<time>2026-09-04T07:28:20Z</time>
</trkpt>
<trkpt lat="46.655930000" lon="-72.140700000">
<ele>0</ele>
<time>2026-09-04T07:28:21Z</time>
</trkpt>
<trkpt lat="46.655730000" lon="-72.140420000">
<ele>0</ele>
<time>2026-09-04T07:28:22Z</time>
</trkpt>
<trkpt lat="46.655650000" lon="-72.140280000">
<ele>0</ele>
<time>2026-09-04T07:28:23Z</time>
</trkpt>
<trkpt lat="46.655600000" lon="-72.140140000">
<ele>0</ele>
<time>2026-09-04T07:28:24Z</time>
</trkpt>
<trkpt lat="46.655590000" lon="-72.139880000">
<ele>0</ele>
<time>2026-09-04T07:28:25Z</time>
</trkpt>
<trkpt lat="46.655680000" lon="-72.139710000">
<ele>0</ele>
<time>2026-09-04T07:28:26Z</time>
</trkpt>
<trkpt lat="46.655770000" lon="-72.139600000">
<ele>0</ele>
<time>2026-09-04T07:28:27Z</time>
</trkpt>
<trkpt lat="46.655870000" lon="-72.139520000">
<ele>0</ele>
<time>2026-09-04T07:28:28Z</time>
</trkpt>
<trkpt lat="46.655820000" lon="-72.139420000">
<ele>0</ele>
<time>2026-09-04T07:28:29Z</time>
</trkpt>
<trkpt lat="46.655820000" lon="-72.139420000">
<ele>0</ele>
<time>2026-09-04T07:28:30Z</time>
</trkpt>
<trkpt lat="46.655130000" lon="-72.138000000">
<ele>0</ele>
<time>2026-09-04T07:28:31Z</time>
</trkpt>
<trkpt lat="46.654950000" lon="-72.138120000">
<ele>0</ele>
<time>2026-09-04T07:28:32Z</time>
</trkpt>
<trkpt lat="46.654950000" lon="-72.138120000">
<ele>0</ele>
<time>2026-09-04T07:28:33Z</time>
</trkpt>
<trkpt lat="46.654630000" lon="-72.138310000">
<ele>0</ele>
<time>2026-09-04T07:28:34Z</time>
</trkpt>
<trkpt lat="46.654320000" lon="-72.138470000">
<ele>0</ele>
<time>2026-09-04T07:28:35Z</time>
</trkpt>
<trkpt lat="46.653790000" lon="-72.138760000">
<ele>0</ele>
<time>2026-09-04T07:28:36Z</time>
</trkpt>
<trkpt lat="46.653610000" lon="-72.138870000">
<ele>0</ele>
<time>2026-09-04T07:28:37Z</time>
</trkpt>
<trkpt lat="46.653280000" lon="-72.139100000">
<ele>0</ele>
<time>2026-09-04T07:28:38Z</time>
</trkpt>
<trkpt lat="46.652860000" lon="-72.139370000">
<ele>0</ele>
<time>2026-09-04T07:28:39Z</time>
</trkpt>
<trkpt lat="46.652460000" lon="-72.139560000">
<ele>0</ele>
<time>2026-09-04T07:28:40Z</time>
</trkpt>
<trkpt lat="46.651890000" lon="-72.139810000">
<ele>0</ele>
<time>2026-09-04T07:28:41Z</time>
</trkpt>
<trkpt lat="46.651430000" lon="-72.140040000">
<ele>0</ele>
<time>2026-09-04T07:28:42Z</time>
</trkpt>
<trkpt lat="46.651260000" lon="-72.140100000">
<ele>0</ele>
<time>2026-09-04T07:28:43Z</time>
</trkpt>
<trkpt lat="46.651100000" lon="-72.140130000">
<ele>0</ele>
<time>2026-09-04T07:28:44Z</time>
</trkpt>
<trkpt lat="46.650810000" lon="-72.140120000">
<ele>0</ele>
<time>2026-09-04T07:28:45Z</time>
</trkpt>
<trkpt lat="46.650470000" lon="-72.140050000">
<ele>0</ele>
<time>2026-09-04T07:28:46Z</time>
</trkpt>
<trkpt lat="46.650190000" lon="-72.139970000">
<ele>0</ele>
<time>2026-09-04T07:28:47Z</time>
</trkpt>
<trkpt lat="46.649520000" lon="-72.139670000">
<ele>0</ele>
<time>2026-09-04T07:28:48Z</time>
</trkpt>
<trkpt lat="46.648600000" lon="-72.139190000">
<ele>0</ele>
<time>2026-09-04T07:28:49Z</time>
</trkpt>
<trkpt lat="46.648410000" lon="-72.139100000">
<ele>0</ele>
<time>2026-09-04T07:28:50Z</time>
</trkpt>
<trkpt lat="46.648140000" lon="-72.139020000">
<ele>0</ele>
<time>2026-09-04T07:28:51Z</time>
</trkpt>
<trkpt lat="46.647920000" lon="-72.138980000">
<ele>0</ele>
<time>2026-09-04T07:28:52Z</time>
</trkpt>
<trkpt lat="46.647610000" lon="-72.138960000">
<ele>0</ele>
<time>2026-09-04T07:28:53Z</time>
</trkpt>
<trkpt lat="46.647370000" lon="-72.138980000">
<ele>0</ele>
<time>2026-09-04T07:28:54Z</time>
</trkpt>
<trkpt lat="46.647030000" lon="-72.139050000">
<ele>0</ele>
<time>2026-09-04T07:28:55Z</time>
</trkpt>
<trkpt lat="46.646750000" lon="-72.139130000">
<ele>0</ele>
<time>2026-09-04T07:28:56Z</time>
</trkpt>
<trkpt lat="46.646330000" lon="-72.139310000">
<ele>0</ele>
<time>2026-09-04T07:28:57Z</time>
</trkpt>
<trkpt lat="46.646020000" lon="-72.139490000">
<ele>0</ele>
<time>2026-09-04T07:28:58Z</time>
</trkpt>
<trkpt lat="46.645730000" lon="-72.139700000">
<ele>0</ele>
<time>2026-09-04T07:28:59Z</time>
</trkpt>
<trkpt lat="46.645390000" lon="-72.140040000">
<ele>0</ele>
<time>2026-09-04T07:29:00Z</time>
</trkpt>
<trkpt lat="46.644890000" lon="-72.140660000">
<ele>0</ele>
<time>2026-09-04T07:29:01Z</time>
</trkpt>
<trkpt lat="46.644520000" lon="-72.141110000">
<ele>0</ele>
<time>2026-09-04T07:29:02Z</time>
</trkpt>
<trkpt lat="46.644230000" lon="-72.141380000">
<ele>0</ele>
<time>2026-09-04T07:29:03Z</time>
</trkpt>
<trkpt lat="46.643560000" lon="-72.141940000">
<ele>0</ele>
<time>2026-09-04T07:29:04Z</time>
</trkpt>
<trkpt lat="46.643320000" lon="-72.142140000">
<ele>0</ele>
<time>2026-09-04T07:29:05Z</time>
</trkpt>
<trkpt lat="46.643060000" lon="-72.142400000">
<ele>0</ele>
<time>2026-09-04T07:29:06Z</time>
</trkpt>
<trkpt lat="46.642920000" lon="-72.142570000">
<ele>0</ele>
<time>2026-09-04T07:29:07Z</time>
</trkpt>
<trkpt lat="46.642680000" lon="-72.142930000">
<ele>0</ele>
<time>2026-09-04T07:29:08Z</time>
</trkpt>
<trkpt lat="46.642170000" lon="-72.143740000">
<ele>0</ele>
<time>2026-09-04T07:29:09Z</time>
</trkpt>
<trkpt lat="46.641810000" lon="-72.144290000">
<ele>0</ele>
<time>2026-09-04T07:29:10Z</time>
</trkpt>
<trkpt lat="46.641450000" lon="-72.144730000">
<ele>0</ele>
<time>2026-09-04T07:29:11Z</time>
</trkpt>
<trkpt lat="46.640860000" lon="-72.145250000">
<ele>0</ele>
<time>2026-09-04T07:29:12Z</time>
</trkpt>
<trkpt lat="46.640500000" lon="-72.145530000">
<ele>0</ele>
<time>2026-09-04T07:29:13Z</time>
</trkpt>
<trkpt lat="46.640180000" lon="-72.145840000">
<ele>0</ele>
<time>2026-09-04T07:29:14Z</time>
</trkpt>
<trkpt lat="46.639760000" lon="-72.146390000">
<ele>0</ele>
<time>2026-09-04T07:29:15Z</time>
</trkpt>
<trkpt lat="46.639520000" lon="-72.146820000">
<ele>0</ele>
<time>2026-09-04T07:29:16Z</time>
</trkpt>
<trkpt lat="46.639260000" lon="-72.147360000">
<ele>0</ele>
<time>2026-09-04T07:29:17Z</time>
</trkpt>
<trkpt lat="46.639160000" lon="-72.147600000">
<ele>0</ele>
<time>2026-09-04T07:29:18Z</time>
</trkpt>
<trkpt lat="46.638930000" lon="-72.148340000">
<ele>0</ele>
<time>2026-09-04T07:29:19Z</time>
</trkpt>
<trkpt lat="46.638820000" lon="-72.148900000">
<ele>0</ele>
<time>2026-09-04T07:29:20Z</time>
</trkpt>
<trkpt lat="46.638780000" lon="-72.149370000">
<ele>0</ele>
<time>2026-09-04T07:29:21Z</time>
</trkpt>
<trkpt lat="46.638760000" lon="-72.150200000">
<ele>0</ele>
<time>2026-09-04T07:29:22Z</time>
</trkpt>
<trkpt lat="46.638760000" lon="-72.150980000">
<ele>0</ele>
<time>2026-09-04T07:29:23Z</time>
</trkpt>
<trkpt lat="46.638810000" lon="-72.152460000">
<ele>0</ele>
<time>2026-09-04T07:29:24Z</time>
</trkpt>
<trkpt lat="46.638780000" lon="-72.153030000">
<ele>0</ele>
<time>2026-09-04T07:29:25Z</time>
</trkpt>
<trkpt lat="46.638730000" lon="-72.153320000">
<ele>0</ele>
<time>2026-09-04T07:29:26Z</time>
</trkpt>
<trkpt lat="46.638590000" lon="-72.153800000">
<ele>0</ele>
<time>2026-09-04T07:29:27Z</time>
</trkpt>
<trkpt lat="46.638400000" lon="-72.154250000">
<ele>0</ele>
<time>2026-09-04T07:29:28Z</time>
</trkpt>
<trkpt lat="46.637650000" lon="-72.155730000">
<ele>0</ele>
<time>2026-09-04T07:29:29Z</time>
</trkpt>
<trkpt lat="46.636790000" lon="-72.157420000">
<ele>0</ele>
<time>2026-09-04T07:29:30Z</time>
</trkpt>
<trkpt lat="46.635650000" lon="-72.159740000">
<ele>0</ele>
<time>2026-09-04T07:29:31Z</time>
</trkpt>
<trkpt lat="46.635360000" lon="-72.160420000">
<ele>0</ele>
<time>2026-09-04T07:29:32Z</time>
</trkpt>
<trkpt lat="46.635200000" lon="-72.160810000">
<ele>0</ele>
<time>2026-09-04T07:29:33Z</time>
</trkpt>
<trkpt lat="46.634700000" lon="-72.162620000">
<ele>0</ele>
<time>2026-09-04T07:29:34Z</time>
</trkpt>
<trkpt lat="46.634440000" lon="-72.163550000">
<ele>0</ele>
<time>2026-09-04T07:29:35Z</time>
</trkpt>
<trkpt lat="46.634310000" lon="-72.163950000">
<ele>0</ele>
<time>2026-09-04T07:29:36Z</time>
</trkpt>
<trkpt lat="46.634000000" lon="-72.164790000">
<ele>0</ele>
<time>2026-09-04T07:29:37Z</time>
</trkpt>
<trkpt lat="46.633830000" lon="-72.165150000">
<ele>0</ele>
<time>2026-09-04T07:29:38Z</time>
</trkpt>
<trkpt lat="46.633460000" lon="-72.166020000">
<ele>0</ele>
<time>2026-09-04T07:29:39Z</time>
</trkpt>
<trkpt lat="46.632980000" lon="-72.167460000">
<ele>0</ele>
<time>2026-09-04T07:29:40Z</time>
</trkpt>
<trkpt lat="46.632640000" lon="-72.168740000">
<ele>0</ele>
<time>2026-09-04T07:29:41Z</time>
</trkpt>
<trkpt lat="46.632390000" lon="-72.169650000">
<ele>0</ele>
<time>2026-09-04T07:29:42Z</time>
</trkpt>
<trkpt lat="46.632110000" lon="-72.170610000">
<ele>0</ele>
<time>2026-09-04T07:29:43Z</time>
</trkpt>
<trkpt lat="46.631860000" lon="-72.171320000">
<ele>0</ele>
<time>2026-09-04T07:29:44Z</time>
</trkpt>
<trkpt lat="46.631360000" lon="-72.172690000">
<ele>0</ele>
<time>2026-09-04T07:29:45Z</time>
</trkpt>
<trkpt lat="46.631080000" lon="-72.173620000">
<ele>0</ele>
<time>2026-09-04T07:29:46Z</time>
</trkpt>
<trkpt lat="46.631020000" lon="-72.173930000">
<ele>0</ele>
<time>2026-09-04T07:29:47Z</time>
</trkpt>
<trkpt lat="46.630900000" lon="-72.174710000">
<ele>0</ele>
<time>2026-09-04T07:29:48Z</time>
</trkpt>
<trkpt lat="46.630730000" lon="-72.176380000">
<ele>0</ele>
<time>2026-09-04T07:29:49Z</time>
</trkpt>
<trkpt lat="46.630570000" lon="-72.177460000">
<ele>0</ele>
<time>2026-09-04T07:29:50Z</time>
</trkpt>
<trkpt lat="46.630470000" lon="-72.177950000">
<ele>0</ele>
<time>2026-09-04T07:29:51Z</time>
</trkpt>
<trkpt lat="46.630310000" lon="-72.178650000">
<ele>0</ele>
<time>2026-09-04T07:29:52Z</time>
</trkpt>
<trkpt lat="46.629980000" lon="-72.179710000">
<ele>0</ele>
<time>2026-09-04T07:29:53Z</time>
</trkpt>
<trkpt lat="46.629710000" lon="-72.180430000">
<ele>0</ele>
<time>2026-09-04T07:29:54Z</time>
</trkpt>
<trkpt lat="46.629370000" lon="-72.181130000">
<ele>0</ele>
<time>2026-09-04T07:29:55Z</time>
</trkpt>
<trkpt lat="46.628590000" lon="-72.182570000">
<ele>0</ele>
<time>2026-09-04T07:29:56Z</time>
</trkpt>
<trkpt lat="46.628290000" lon="-72.183260000">
<ele>0</ele>
<time>2026-09-04T07:29:57Z</time>
</trkpt>
<trkpt lat="46.628070000" lon="-72.184020000">
<ele>0</ele>
<time>2026-09-04T07:29:58Z</time>
</trkpt>
<trkpt lat="46.627370000" lon="-72.187830000">
<ele>0</ele>
<time>2026-09-04T07:29:59Z</time>
</trkpt>
<trkpt lat="46.627170000" lon="-72.189140000">
<ele>0</ele>
<time>2026-09-04T07:30:00Z</time>
</trkpt>
<trkpt lat="46.627130000" lon="-72.189450000">
<ele>0</ele>
<time>2026-09-04T07:30:01Z</time>
</trkpt>
<trkpt lat="46.627100000" lon="-72.190180000">
<ele>0</ele>
<time>2026-09-04T07:30:02Z</time>
</trkpt>
<trkpt lat="46.627070000" lon="-72.190960000">
<ele>0</ele>
<time>2026-09-04T07:30:03Z</time>
</trkpt>
<trkpt lat="46.626990000" lon="-72.193020000">
<ele>0</ele>
<time>2026-09-04T07:30:04Z</time>
</trkpt>
<trkpt lat="46.626820000" lon="-72.194020000">
<ele>0</ele>
<time>2026-09-04T07:30:05Z</time>
</trkpt>
<trkpt lat="46.626590000" lon="-72.194790000">
<ele>0</ele>
<time>2026-09-04T07:30:06Z</time>
</trkpt>
<trkpt lat="46.626350000" lon="-72.195850000">
<ele>0</ele>
<time>2026-09-04T07:30:07Z</time>
</trkpt>
<trkpt lat="46.626300000" lon="-72.196300000">
<ele>0</ele>
<time>2026-09-04T07:30:08Z</time>
</trkpt>
<trkpt lat="46.626190000" lon="-72.198860000">
<ele>0</ele>
<time>2026-09-04T07:30:09Z</time>
</trkpt>
<trkpt lat="46.625980000" lon="-72.200470000">
<ele>0</ele>
<time>2026-09-04T07:30:10Z</time>
</trkpt>
<trkpt lat="46.625850000" lon="-72.201020000">
<ele>0</ele>
<time>2026-09-04T07:30:11Z</time>
</trkpt>
<trkpt lat="46.625350000" lon="-72.202620000">
<ele>0</ele>
<time>2026-09-04T07:30:12Z</time>
</trkpt>
<trkpt lat="46.625260000" lon="-72.202850000">
<ele>0</ele>
<time>2026-09-04T07:30:13Z</time>
</trkpt>
<trkpt lat="46.625000000" lon="-72.203360000">
<ele>0</ele>
<time>2026-09-04T07:30:14Z</time>
</trkpt>
<trkpt lat="46.624730000" lon="-72.203740000">
<ele>0</ele>
<time>2026-09-04T07:30:15Z</time>
</trkpt>
<trkpt lat="46.624450000" lon="-72.204060000">
<ele>0</ele>
<time>2026-09-04T07:30:16Z</time>
</trkpt>
<trkpt lat="46.624040000" lon="-72.204350000">
<ele>0</ele>
<time>2026-09-04T07:30:17Z</time>
</trkpt>
<trkpt lat="46.623760000" lon="-72.204510000">
<ele>0</ele>
<time>2026-09-04T07:30:18Z</time>
</trkpt>
<trkpt lat="46.623540000" lon="-72.204600000">
<ele>0</ele>
<time>2026-09-04T07:30:19Z</time>
</trkpt>
<trkpt lat="46.623230000" lon="-72.204670000">
<ele>0</ele>
<time>2026-09-04T07:30:20Z</time>
</trkpt>
<trkpt lat="46.622820000" lon="-72.204730000">
<ele>0</ele>
<time>2026-09-04T07:30:21Z</time>
</trkpt>
<trkpt lat="46.622360000" lon="-72.204710000">
<ele>0</ele>
<time>2026-09-04T07:30:22Z</time>
</trkpt>
<trkpt lat="46.621750000" lon="-72.204620000">
<ele>0</ele>
<time>2026-09-04T07:30:23Z</time>
</trkpt>
<trkpt lat="46.621040000" lon="-72.204420000">
<ele>0</ele>
<time>2026-09-04T07:30:24Z</time>
</trkpt>
<trkpt lat="46.620720000" lon="-72.204300000">
<ele>0</ele>
<time>2026-09-04T07:30:25Z</time>
</trkpt>
<trkpt lat="46.619980000" lon="-72.203920000">
<ele>0</ele>
<time>2026-09-04T07:30:26Z</time>
</trkpt>
<trkpt lat="46.619530000" lon="-72.203600000">
<ele>0</ele>
<time>2026-09-04T07:30:27Z</time>
</trkpt>
<trkpt lat="46.618660000" lon="-72.202970000">
<ele>0</ele>
<time>2026-09-04T07:30:28Z</time>
</trkpt>
<trkpt lat="46.617870000" lon="-72.202570000">
<ele>0</ele>
<time>2026-09-04T07:30:29Z</time>
</trkpt>
<trkpt lat="46.617380000" lon="-72.202520000">
<ele>0</ele>
<time>2026-09-04T07:30:30Z</time>
</trkpt>
<trkpt lat="46.616880000" lon="-72.202620000">
<ele>0</ele>
<time>2026-09-04T07:30:31Z</time>
</trkpt>
<trkpt lat="46.615620000" lon="-72.203170000">
<ele>0</ele>
<time>2026-09-04T07:30:32Z</time>
</trkpt>
<trkpt lat="46.615040000" lon="-72.203530000">
<ele>0</ele>
<time>2026-09-04T07:30:33Z</time>
</trkpt>
<trkpt lat="46.614260000" lon="-72.203780000">
<ele>0</ele>
<time>2026-09-04T07:30:34Z</time>
</trkpt>
<trkpt lat="46.613220000" lon="-72.204040000">
<ele>0</ele>
<time>2026-09-04T07:30:35Z</time>
</trkpt>
<trkpt lat="46.611920000" lon="-72.204300000">
<ele>0</ele>
<time>2026-09-04T07:30:36Z</time>
</trkpt>
<trkpt lat="46.611210000" lon="-72.204470000">
<ele>0</ele>
<time>2026-09-04T07:30:37Z</time>
</trkpt>
<trkpt lat="46.610340000" lon="-72.204750000">
<ele>0</ele>
<time>2026-09-04T07:30:38Z</time>
</trkpt>
<trkpt lat="46.608400000" lon="-72.205530000">
<ele>0</ele>
<time>2026-09-04T07:30:39Z</time>
</trkpt>
<trkpt lat="46.607590000" lon="-72.205750000">
<ele>0</ele>
<time>2026-09-04T07:30:40Z</time>
</trkpt>
<trkpt lat="46.606980000" lon="-72.205590000">
<ele>0</ele>
<time>2026-09-04T07:30:41Z</time>
</trkpt>
<trkpt lat="46.606790000" lon="-72.205430000">
<ele>0</ele>
<time>2026-09-04T07:30:42Z</time>
</trkpt>
<trkpt lat="46.606550000" lon="-72.205160000">
<ele>0</ele>
<time>2026-09-04T07:30:43Z</time>
</trkpt>
<trkpt lat="46.606050000" lon="-72.204460000">
<ele>0</ele>
<time>2026-09-04T07:30:44Z</time>
</trkpt>
<trkpt lat="46.605620000" lon="-72.203930000">
<ele>0</ele>
<time>2026-09-04T07:30:45Z</time>
</trkpt>
<trkpt lat="46.605250000" lon="-72.203610000">
<ele>0</ele>
<time>2026-09-04T07:30:46Z</time>
</trkpt>
<trkpt lat="46.604990000" lon="-72.203490000">
<ele>0</ele>
<time>2026-09-04T07:30:47Z</time>
</trkpt>
<trkpt lat="46.602470000" lon="-72.203270000">
<ele>0</ele>
<time>2026-09-04T07:30:48Z</time>
</trkpt>
<trkpt lat="46.601980000" lon="-72.203480000">
<ele>0</ele>
<time>2026-09-04T07:30:49Z</time>
</trkpt>
<trkpt lat="46.601630000" lon="-72.203790000">
<ele>0</ele>
<time>2026-09-04T07:30:50Z</time>
</trkpt>
<trkpt lat="46.601550000" lon="-72.203900000">
<ele>0</ele>
<time>2026-09-04T07:30:51Z</time>
</trkpt>
<trkpt lat="46.601300000" lon="-72.204230000">
<ele>0</ele>
<time>2026-09-04T07:30:52Z</time>
</trkpt>
<trkpt lat="46.600790000" lon="-72.205020000">
<ele>0</ele>
<time>2026-09-04T07:30:53Z</time>
</trkpt>
<trkpt lat="46.598690000" lon="-72.208260000">
<ele>0</ele>
<time>2026-09-04T07:30:54Z</time>
</trkpt>
<trkpt lat="46.597960000" lon="-72.209410000">
<ele>0</ele>
<time>2026-09-04T07:30:55Z</time>
</trkpt>
<trkpt lat="46.596170000" lon="-72.212350000">
<ele>0</ele>
<time>2026-09-04T07:30:56Z</time>
</trkpt>
<trkpt lat="46.594540000" lon="-72.215040000">
<ele>0</ele>
<time>2026-09-04T07:30:57Z</time>
</trkpt>
<trkpt lat="46.592650000" lon="-72.218070000">
<ele>0</ele>
<time>2026-09-04T07:30:58Z</time>
</trkpt>
<trkpt lat="46.592070000" lon="-72.218950000">
<ele>0</ele>
<time>2026-09-04T07:30:59Z</time>
</trkpt>
<trkpt lat="46.591170000" lon="-72.220330000">
<ele>0</ele>
<time>2026-09-04T07:31:00Z</time>
</trkpt>
<trkpt lat="46.590940000" lon="-72.220600000">
<ele>0</ele>
<time>2026-09-04T07:31:01Z</time>
</trkpt>
<trkpt lat="46.590700000" lon="-72.220780000">
<ele>0</ele>
<time>2026-09-04T07:31:02Z</time>
</trkpt>
<trkpt lat="46.590430000" lon="-72.220900000">
<ele>0</ele>
<time>2026-09-04T07:31:03Z</time>
</trkpt>
<trkpt lat="46.589900000" lon="-72.220910000">
<ele>0</ele>
<time>2026-09-04T07:31:04Z</time>
</trkpt>
<trkpt lat="46.589620000" lon="-72.220820000">
<ele>0</ele>
<time>2026-09-04T07:31:05Z</time>
</trkpt>
<trkpt lat="46.588830000" lon="-72.220320000">
<ele>0</ele>
<time>2026-09-04T07:31:06Z</time>
</trkpt>
<trkpt lat="46.587350000" lon="-72.219370000">
<ele>0</ele>
<time>2026-09-04T07:31:07Z</time>
</trkpt>
<trkpt lat="46.586990000" lon="-72.219100000">
<ele>0</ele>
<time>2026-09-04T07:31:08Z</time>
</trkpt>
<trkpt lat="46.586710000" lon="-72.218770000">
<ele>0</ele>
<time>2026-09-04T07:31:09Z</time>
</trkpt>
<trkpt lat="46.586460000" lon="-72.218430000">
<ele>0</ele>
<time>2026-09-04T07:31:10Z</time>
</trkpt>
<trkpt lat="46.586250000" lon="-72.218020000">
<ele>0</ele>
<time>2026-09-04T07:31:11Z</time>
</trkpt>
<trkpt lat="46.585920000" lon="-72.217110000">
<ele>0</ele>
<time>2026-09-04T07:31:12Z</time>
</trkpt>
<trkpt lat="46.585820000" lon="-72.216720000">
<ele>0</ele>
<time>2026-09-04T07:31:13Z</time>
</trkpt>
<trkpt lat="46.585710000" lon="-72.216190000">
<ele>0</ele>
<time>2026-09-04T07:31:14Z</time>
</trkpt>
<trkpt lat="46.585530000" lon="-72.215450000">
<ele>0</ele>
<time>2026-09-04T07:31:15Z</time>
</trkpt>
<trkpt lat="46.585260000" lon="-72.214700000">
<ele>0</ele>
<time>2026-09-04T07:31:16Z</time>
</trkpt>
<trkpt lat="46.585260000" lon="-72.214650000">
<ele>0</ele>
<time>2026-09-04T07:31:17Z</time>
</trkpt>
<trkpt lat="46.585000000" lon="-72.214200000">
<ele>0</ele>
<time>2026-09-04T07:31:18Z</time>
</trkpt>
<trkpt lat="46.584970000" lon="-72.214110000">
<ele>0</ele>
<time>2026-09-04T07:31:19Z</time>
</trkpt>
<trkpt lat="46.584370000" lon="-72.213290000">
<ele>0</ele>
<time>2026-09-04T07:31:20Z</time>
</trkpt>
<trkpt lat="46.583100000" lon="-72.211460000">
<ele>0</ele>
<time>2026-09-04T07:31:21Z</time>
</trkpt>
<trkpt lat="46.582890000" lon="-72.211170000">
<ele>0</ele>
<time>2026-09-04T07:31:22Z</time>
</trkpt>
<trkpt lat="46.582510000" lon="-72.210610000">
<ele>0</ele>
<time>2026-09-04T07:31:23Z</time>
</trkpt>
<trkpt lat="46.582250000" lon="-72.210250000">
<ele>0</ele>
<time>2026-09-04T07:31:24Z</time>
</trkpt>
<trkpt lat="46.581580000" lon="-72.209370000">
<ele>0</ele>
<time>2026-09-04T07:31:25Z</time>
</trkpt>
<trkpt lat="46.580690000" lon="-72.208120000">
<ele>0</ele>
<time>2026-09-04T07:31:26Z</time>
</trkpt>
<trkpt lat="46.580080000" lon="-72.207640000">
<ele>0</ele>
<time>2026-09-04T07:31:27Z</time>
</trkpt>
<trkpt lat="46.579150000" lon="-72.207130000">
<ele>0</ele>
<time>2026-09-04T07:31:28Z</time>
</trkpt>
<trkpt lat="46.578760000" lon="-72.206880000">
<ele>0</ele>
<time>2026-09-04T07:31:29Z</time>
</trkpt>
<trkpt lat="46.578380000" lon="-72.206480000">
<ele>0</ele>
<time>2026-09-04T07:31:30Z</time>
</trkpt>
<trkpt lat="46.577860000" lon="-72.205760000">
<ele>0</ele>
<time>2026-09-04T07:31:31Z</time>
</trkpt>
<trkpt lat="46.576920000" lon="-72.204470000">
<ele>0</ele>
<time>2026-09-04T07:31:32Z</time>
</trkpt>
<trkpt lat="46.576920000" lon="-72.204470000">
<ele>0</ele>
<time>2026-09-04T07:31:33Z</time>
</trkpt>
<trkpt lat="46.576590000" lon="-72.204010000">
<ele>0</ele>
<time>2026-09-04T07:31:34Z</time>
</trkpt>
<trkpt lat="46.576310000" lon="-72.204450000">
<ele>0</ele>
<time>2026-09-04T07:31:35Z</time>
</trkpt>
<trkpt lat="46.576310000" lon="-72.204450000">
<ele>0</ele>
<time>2026-09-04T07:31:36Z</time>
</trkpt>
<trkpt lat="46.575610000" lon="-72.205520000">
<ele>0</ele>
<time>2026-09-04T07:31:37Z</time>
</trkpt>
<trkpt lat="46.575570000" lon="-72.205540000">
<ele>0</ele>
<time>2026-09-04T07:31:38Z</time>
</trkpt>
<trkpt lat="46.575500000" lon="-72.205540000">
<ele>0</ele>
<time>2026-09-04T07:31:39Z</time>
</trkpt>
<trkpt lat="46.575260000" lon="-72.205470000">
<ele>0</ele>
<time>2026-09-04T07:31:40Z</time>
</trkpt>
<trkpt lat="46.574720000" lon="-72.205370000">
<ele>0</ele>
<time>2026-09-04T07:31:41Z</time>
</trkpt>
<trkpt lat="46.574470000" lon="-72.205350000">
<ele>0</ele>
<time>2026-09-04T07:31:42Z</time>
</trkpt>
<trkpt lat="46.574460000" lon="-72.205350000">
<ele>0</ele>
<time>2026-09-04T07:31:43Z</time>
</trkpt>
<trkpt lat="46.574460000" lon="-72.205350000">
<ele>0</ele>
<time>2026-09-04T07:31:44Z</time>
</trkpt>
<trkpt lat="46.573660000" lon="-72.205360000">
<ele>0</ele>
<time>2026-09-04T07:31:45Z</time>
</trkpt>
<trkpt lat="46.573070000" lon="-72.205320000">
<ele>0</ele>
<time>2026-09-04T07:31:46Z</time>
</trkpt>
<trkpt lat="46.573070000" lon="-72.205320000">
<ele>0</ele>
<time>2026-09-04T07:31:47Z</time>
</trkpt>
<trkpt lat="46.572930000" lon="-72.205310000">
<ele>0</ele>
<time>2026-09-04T07:31:48Z</time>
</trkpt>
<trkpt lat="46.572930000" lon="-72.205310000">
<ele>0</ele>
<time>2026-09-04T07:31:49Z</time>
</trkpt>
<trkpt lat="46.572690000" lon="-72.205270000">
<ele>0</ele>
<time>2026-09-04T07:31:50Z</time>
</trkpt>
<trkpt lat="46.572410000" lon="-72.205160000">
<ele>0</ele>
<time>2026-09-04T07:31:51Z</time>
</trkpt>
<trkpt lat="46.572370000" lon="-72.205180000">
<ele>0</ele>
<time>2026-09-04T07:31:52Z</time>
</trkpt>
<trkpt lat="46.572260000" lon="-72.205230000">
<ele>0</ele>
<time>2026-09-04T07:31:53Z</time>
</trkpt>
<trkpt lat="46.572190000" lon="-72.205320000">
<ele>0</ele>
<time>2026-09-04T07:31:54Z</time>
</trkpt>
<trkpt lat="46.572060000" lon="-72.205610000">
<ele>0</ele>
<time>2026-09-04T07:31:55Z</time>
</trkpt>
<trkpt lat="46.572050000" lon="-72.205710000">
<ele>0</ele>
<time>2026-09-04T07:31:56Z</time>
</trkpt>
<trkpt lat="46.572020000" lon="-72.205820000">
<ele>0</ele>
<time>2026-09-04T07:31:57Z</time>
</trkpt>
<trkpt lat="46.571670000" lon="-72.206780000">
<ele>0</ele>
<time>2026-09-04T07:31:58Z</time>
</trkpt>
<trkpt lat="46.571490000" lon="-72.207270000">
<ele>0</ele>
<time>2026-09-04T07:31:59Z</time>
</trkpt>
<trkpt lat="46.571490000" lon="-72.207270000">
<ele>0</ele>
<time>2026-09-04T07:32:00Z</time>
</trkpt>
<trkpt lat="46.571110000" lon="-72.208280000">
<ele>0</ele>
<time>2026-09-04T07:32:01Z</time>
</trkpt>
<trkpt lat="46.570940000" lon="-72.208550000">
<ele>0</ele>
<time>2026-09-04T07:32:02Z</time>
</trkpt>
<trkpt lat="46.570860000" lon="-72.208620000">
<ele>0</ele>
<time>2026-09-04T07:32:03Z</time>
</trkpt>
<trkpt lat="46.570860000" lon="-72.208620000">
<ele>0</ele>
<time>2026-09-04T07:32:04Z</time>
</trkpt>
<trkpt lat="46.570730000" lon="-72.208730000">
<ele>0</ele>
<time>2026-09-04T07:32:05Z</time>
</trkpt>
<trkpt lat="46.570520000" lon="-72.208850000">
<ele>0</ele>
<time>2026-09-04T07:32:06Z</time>
</trkpt>
<trkpt lat="46.570370000" lon="-72.208910000">
<ele>0</ele>
<time>2026-09-04T07:32:07Z</time>
</trkpt>
<trkpt lat="46.570050000" lon="-72.209080000">
<ele>0</ele>
<time>2026-09-04T07:32:08Z</time>
</trkpt>
<trkpt lat="46.569840000" lon="-72.209250000">
<ele>0</ele>
<time>2026-09-04T07:32:09Z</time>
</trkpt>
<trkpt lat="46.569710000" lon="-72.209410000">
<ele>0</ele>
<time>2026-09-04T07:32:10Z</time>
</trkpt>
<trkpt lat="46.569090000" lon="-72.210470000">
<ele>0</ele>
<time>2026-09-04T07:32:11Z</time>
</trkpt>
<trkpt lat="46.568930000" lon="-72.210730000">
<ele>0</ele>
<time>2026-09-04T07:32:12Z</time>
</trkpt>
<trkpt lat="46.568660000" lon="-72.211020000">
<ele>0</ele>
<time>2026-09-04T07:32:13Z</time>
</trkpt>
<trkpt lat="46.568480000" lon="-72.211160000">
<ele>0</ele>
<time>2026-09-04T07:32:14Z</time>
</trkpt>
<trkpt lat="46.568260000" lon="-72.211280000">
<ele>0</ele>
<time>2026-09-04T07:32:15Z</time>
</trkpt>
<trkpt lat="46.567740000" lon="-72.211360000">
<ele>0</ele>
<time>2026-09-04T07:32:16Z</time>
</trkpt>
<trkpt lat="46.567130000" lon="-72.211270000">
<ele>0</ele>
<time>2026-09-04T07:32:17Z</time>
</trkpt>
<trkpt lat="46.566890000" lon="-72.211250000">
<ele>0</ele>
<time>2026-09-04T07:32:18Z</time>
</trkpt>
<trkpt lat="46.566520000" lon="-72.211320000">
<ele>0</ele>
<time>2026-09-04T07:32:19Z</time>
</trkpt>
<trkpt lat="46.565350000" lon="-72.211580000">
<ele>0</ele>
<time>2026-09-04T07:32:20Z</time>
</trkpt>
<trkpt lat="46.565110000" lon="-72.211690000">
<ele>0</ele>
<time>2026-09-04T07:32:21Z</time>
</trkpt>
<trkpt lat="46.564780000" lon="-72.211840000">
<ele>0</ele>
<time>2026-09-04T07:32:22Z</time>
</trkpt>
<trkpt lat="46.564410000" lon="-72.212060000">
<ele>0</ele>
<time>2026-09-04T07:32:23Z</time>
</trkpt>
<trkpt lat="46.562640000" lon="-72.213070000">
<ele>0</ele>
<time>2026-09-04T07:32:24Z</time>
</trkpt>
<trkpt lat="46.561060000" lon="-72.213950000">
<ele>0</ele>
<time>2026-09-04T07:32:25Z</time>
</trkpt>
<trkpt lat="46.559450000" lon="-72.214860000">
<ele>0</ele>
<time>2026-09-04T07:32:26Z</time>
</trkpt>
<trkpt lat="46.558980000" lon="-72.215140000">
<ele>0</ele>
<time>2026-09-04T07:32:27Z</time>
</trkpt>
<trkpt lat="46.558790000" lon="-72.215280000">
<ele>0</ele>
<time>2026-09-04T07:32:28Z</time>
</trkpt>
<trkpt lat="46.558690000" lon="-72.215360000">
<ele>0</ele>
<time>2026-09-04T07:32:29Z</time>
</trkpt>
<trkpt lat="46.558430000" lon="-72.215590000">
<ele>0</ele>
<time>2026-09-04T07:32:30Z</time>
</trkpt>
<trkpt lat="46.558090000" lon="-72.215930000">
<ele>0</ele>
<time>2026-09-04T07:32:31Z</time>
</trkpt>
<trkpt lat="46.557680000" lon="-72.216420000">
<ele>0</ele>
<time>2026-09-04T07:32:32Z</time>
</trkpt>
<trkpt lat="46.555100000" lon="-72.219480000">
<ele>0</ele>
<time>2026-09-04T07:32:33Z</time>
</trkpt>
<trkpt lat="46.553890000" lon="-72.220820000">
<ele>0</ele>
<time>2026-09-04T07:32:34Z</time>
</trkpt>
<trkpt lat="46.553510000" lon="-72.221230000">
<ele>0</ele>
<time>2026-09-04T07:32:35Z</time>
</trkpt>
<trkpt lat="46.552990000" lon="-72.221720000">
<ele>0</ele>
<time>2026-09-04T07:32:36Z</time>
</trkpt>
<trkpt lat="46.552690000" lon="-72.221970000">
<ele>0</ele>
<time>2026-09-04T07:32:37Z</time>
</trkpt>
<trkpt lat="46.552220000" lon="-72.222360000">
<ele>0</ele>
<time>2026-09-04T07:32:38Z</time>
</trkpt>
<trkpt lat="46.551500000" lon="-72.222910000">
<ele>0</ele>
<time>2026-09-04T07:32:39Z</time>
</trkpt>
<trkpt lat="46.550180000" lon="-72.223710000">
<ele>0</ele>
<time>2026-09-04T07:32:40Z</time>
</trkpt>
<trkpt lat="46.549260000" lon="-72.224140000">
<ele>0</ele>
<time>2026-09-04T07:32:41Z</time>
</trkpt>
<trkpt lat="46.548890000" lon="-72.224270000">
<ele>0</ele>
<time>2026-09-04T07:32:42Z</time>
</trkpt>
<trkpt lat="46.547330000" lon="-72.224850000">
<ele>0</ele>
<time>2026-09-04T07:32:43Z</time>
</trkpt>
<trkpt lat="46.546440000" lon="-72.225110000">
<ele>0</ele>
<time>2026-09-04T07:32:44Z</time>
</trkpt>
<trkpt lat="46.546100000" lon="-72.225240000">
<ele>0</ele>
<time>2026-09-04T07:32:45Z</time>
</trkpt>
<trkpt lat="46.545450000" lon="-72.225480000">
<ele>0</ele>
<time>2026-09-04T07:32:46Z</time>
</trkpt>
<trkpt lat="46.545220000" lon="-72.225590000">
<ele>0</ele>
<time>2026-09-04T07:32:47Z</time>
</trkpt>
<trkpt lat="46.544170000" lon="-72.226370000">
<ele>0</ele>
<time>2026-09-04T07:32:48Z</time>
</trkpt>
<trkpt lat="46.541920000" lon="-72.228180000">
<ele>0</ele>
<time>2026-09-04T07:32:49Z</time>
</trkpt>
<trkpt lat="46.540200000" lon="-72.229750000">
<ele>0</ele>
<time>2026-09-04T07:32:50Z</time>
</trkpt>
<trkpt lat="46.537910000" lon="-72.231870000">
<ele>0</ele>
<time>2026-09-04T07:32:51Z</time>
</trkpt>
<trkpt lat="46.537330000" lon="-72.232390000">
<ele>0</ele>
<time>2026-09-04T07:32:52Z</time>
</trkpt>
<trkpt lat="46.536990000" lon="-72.232640000">
<ele>0</ele>
<time>2026-09-04T07:32:53Z</time>
</trkpt>
<trkpt lat="46.536380000" lon="-72.232930000">
<ele>0</ele>
<time>2026-09-04T07:32:54Z</time>
</trkpt>
<trkpt lat="46.535140000" lon="-72.233360000">
<ele>0</ele>
<time>2026-09-04T07:32:55Z</time>
</trkpt>
<trkpt lat="46.526450000" lon="-72.235930000">
<ele>0</ele>
<time>2026-09-04T07:32:56Z</time>
</trkpt>
<trkpt lat="46.526170000" lon="-72.236040000">
<ele>0</ele>
<time>2026-09-04T07:32:57Z</time>
</trkpt>
<trkpt lat="46.525880000" lon="-72.236200000">
<ele>0</ele>
<time>2026-09-04T07:32:58Z</time>
</trkpt>
<trkpt lat="46.525540000" lon="-72.236460000">
<ele>0</ele>
<time>2026-09-04T07:32:59Z</time>
</trkpt>
<trkpt lat="46.525310000" lon="-72.236680000">
<ele>0</ele>
<time>2026-09-04T07:33:00Z</time>
</trkpt>
<trkpt lat="46.525060000" lon="-72.236960000">
<ele>0</ele>
<time>2026-09-04T07:33:01Z</time>
</trkpt>
<trkpt lat="46.524710000" lon="-72.237490000">
<ele>0</ele>
<time>2026-09-04T07:33:02Z</time>
</trkpt>
<trkpt lat="46.524440000" lon="-72.238060000">
<ele>0</ele>
<time>2026-09-04T07:33:03Z</time>
</trkpt>
<trkpt lat="46.524190000" lon="-72.238840000">
<ele>0</ele>
<time>2026-09-04T07:33:04Z</time>
</trkpt>
<trkpt lat="46.524110000" lon="-72.239220000">
<ele>0</ele>
<time>2026-09-04T07:33:05Z</time>
</trkpt>
<trkpt lat="46.524030000" lon="-72.239730000">
<ele>0</ele>
<time>2026-09-04T07:33:06Z</time>
</trkpt>
<trkpt lat="46.523930000" lon="-72.240770000">
<ele>0</ele>
<time>2026-09-04T07:33:07Z</time>
</trkpt>
<trkpt lat="46.523930000" lon="-72.241750000">
<ele>0</ele>
<time>2026-09-04T07:33:08Z</time>
</trkpt>
<trkpt lat="46.523980000" lon="-72.242760000">
<ele>0</ele>
<time>2026-09-04T07:33:09Z</time>
</trkpt>
<trkpt lat="46.523980000" lon="-72.243100000">
<ele>0</ele>
<time>2026-09-04T07:33:10Z</time>
</trkpt>
<trkpt lat="46.523960000" lon="-72.243320000">
<ele>0</ele>
<time>2026-09-04T07:33:11Z</time>
</trkpt>
<trkpt lat="46.523920000" lon="-72.243600000">
<ele>0</ele>
<time>2026-09-04T07:33:12Z</time>
</trkpt>
<trkpt lat="46.523860000" lon="-72.243840000">
<ele>0</ele>
<time>2026-09-04T07:33:13Z</time>
</trkpt>
<trkpt lat="46.523740000" lon="-72.244170000">
<ele>0</ele>
<time>2026-09-04T07:33:14Z</time>
</trkpt>
<trkpt lat="46.523590000" lon="-72.244440000">
<ele>0</ele>
<time>2026-09-04T07:33:15Z</time>
</trkpt>
<trkpt lat="46.523370000" lon="-72.244680000">
<ele>0</ele>
<time>2026-09-04T07:33:16Z</time>
</trkpt>
<trkpt lat="46.522810000" lon="-72.245090000">
<ele>0</ele>
<time>2026-09-04T07:33:17Z</time>
</trkpt>
<trkpt lat="46.522420000" lon="-72.245320000">
<ele>0</ele>
<time>2026-09-04T07:33:18Z</time>
</trkpt>
<trkpt lat="46.521830000" lon="-72.245580000">
<ele>0</ele>
<time>2026-09-04T07:33:19Z</time>
</trkpt>
<trkpt lat="46.518910000" lon="-72.246790000">
<ele>0</ele>
<time>2026-09-04T07:33:20Z</time>
</trkpt>
<trkpt lat="46.518530000" lon="-72.246920000">
<ele>0</ele>
<time>2026-09-04T07:33:21Z</time>
</trkpt>
<trkpt lat="46.518370000" lon="-72.246930000">
<ele>0</ele>
<time>2026-09-04T07:33:22Z</time>
</trkpt>
<trkpt lat="46.518230000" lon="-72.246890000">
<ele>0</ele>
<time>2026-09-04T07:33:23Z</time>
</trkpt>
<trkpt lat="46.517020000" lon="-72.246260000">
<ele>0</ele>
<time>2026-09-04T07:33:24Z</time>
</trkpt>
<trkpt lat="46.516410000" lon="-72.245970000">
<ele>0</ele>
<time>2026-09-04T07:33:25Z</time>
</trkpt>
<trkpt lat="46.516160000" lon="-72.245880000">
<ele>0</ele>
<time>2026-09-04T07:33:26Z</time>
</trkpt>
<trkpt lat="46.515700000" lon="-72.245810000">
<ele>0</ele>
<time>2026-09-04T07:33:27Z</time>
</trkpt>
<trkpt lat="46.515070000" lon="-72.245810000">
<ele>0</ele>
<time>2026-09-04T07:33:28Z</time>
</trkpt>
<trkpt lat="46.514580000" lon="-72.245780000">
<ele>0</ele>
<time>2026-09-04T07:33:29Z</time>
</trkpt>
<trkpt lat="46.513690000" lon="-72.245640000">
<ele>0</ele>
<time>2026-09-04T07:33:30Z</time>
</trkpt>
<trkpt lat="46.513570000" lon="-72.245640000">
<ele>0</ele>
<time>2026-09-04T07:33:31Z</time>
</trkpt>
<trkpt lat="46.512510000" lon="-72.245730000">
<ele>0</ele>
<time>2026-09-04T07:33:32Z</time>
</trkpt>
<trkpt lat="46.510050000" lon="-72.245930000">
<ele>0</ele>
<time>2026-09-04T07:33:33Z</time>
</trkpt>
<trkpt lat="46.508420000" lon="-72.246060000">
<ele>0</ele>
<time>2026-09-04T07:33:34Z</time>
</trkpt>
<trkpt lat="46.507590000" lon="-72.246170000">
<ele>0</ele>
<time>2026-09-04T07:33:35Z</time>
</trkpt>
<trkpt lat="46.506160000" lon="-72.246390000">
<ele>0</ele>
<time>2026-09-04T07:33:36Z</time>
</trkpt>
<trkpt lat="46.505660000" lon="-72.246460000">
<ele>0</ele>
<time>2026-09-04T07:33:37Z</time>
</trkpt>
<trkpt lat="46.505440000" lon="-72.246520000">
<ele>0</ele>
<time>2026-09-04T07:33:38Z</time>
</trkpt>
<trkpt lat="46.505250000" lon="-72.246610000">
<ele>0</ele>
<time>2026-09-04T07:33:39Z</time>
</trkpt>
<trkpt lat="46.504880000" lon="-72.246830000">
<ele>0</ele>
<time>2026-09-04T07:33:40Z</time>
</trkpt>
<trkpt lat="46.504450000" lon="-72.247110000">
<ele>0</ele>
<time>2026-09-04T07:33:41Z</time>
</trkpt>
<trkpt lat="46.504290000" lon="-72.247180000">
<ele>0</ele>
<time>2026-09-04T07:33:42Z</time>
</trkpt>
<trkpt lat="46.504100000" lon="-72.247220000">
<ele>0</ele>
<time>2026-09-04T07:33:43Z</time>
</trkpt>
<trkpt lat="46.503970000" lon="-72.247220000">
<ele>0</ele>
<time>2026-09-04T07:33:44Z</time>
</trkpt>
<trkpt lat="46.503550000" lon="-72.247160000">
<ele>0</ele>
<time>2026-09-04T07:33:45Z</time>
</trkpt>
<trkpt lat="46.503020000" lon="-72.247130000">
<ele>0</ele>
<time>2026-09-04T07:33:46Z</time>
</trkpt>
<trkpt lat="46.501750000" lon="-72.247120000">
<ele>0</ele>
<time>2026-09-04T07:33:47Z</time>
</trkpt>
<trkpt lat="46.500780000" lon="-72.247140000">
<ele>0</ele>
<time>2026-09-04T07:33:48Z</time>
</trkpt>
<trkpt lat="46.500500000" lon="-72.247170000">
<ele>0</ele>
<time>2026-09-04T07:33:49Z</time>
</trkpt>
<trkpt lat="46.500340000" lon="-72.247220000">
<ele>0</ele>
<time>2026-09-04T07:33:50Z</time>
</trkpt>
<trkpt lat="46.500100000" lon="-72.247350000">
<ele>0</ele>
<time>2026-09-04T07:33:51Z</time>
</trkpt>
<trkpt lat="46.499990000" lon="-72.247440000">
<ele>0</ele>
<time>2026-09-04T07:33:52Z</time>
</trkpt>
<trkpt lat="46.499380000" lon="-72.247990000">
<ele>0</ele>
<time>2026-09-04T07:33:53Z</time>
</trkpt>
<trkpt lat="46.498300000" lon="-72.249020000">
<ele>0</ele>
<time>2026-09-04T07:33:54Z</time>
</trkpt>
<trkpt lat="46.498070000" lon="-72.249220000">
<ele>0</ele>
<time>2026-09-04T07:33:55Z</time>
</trkpt>
<trkpt lat="46.497760000" lon="-72.249450000">
<ele>0</ele>
<time>2026-09-04T07:33:56Z</time>
</trkpt>
<trkpt lat="46.497360000" lon="-72.249680000">
<ele>0</ele>
<time>2026-09-04T07:33:57Z</time>
</trkpt>
<trkpt lat="46.496510000" lon="-72.250150000">
<ele>0</ele>
<time>2026-09-04T07:33:58Z</time>
</trkpt>
<trkpt lat="46.496150000" lon="-72.250300000">
<ele>0</ele>
<time>2026-09-04T07:33:59Z</time>
</trkpt>
<trkpt lat="46.495740000" lon="-72.250420000">
<ele>0</ele>
<time>2026-09-04T07:34:00Z</time>
</trkpt>
<trkpt lat="46.495530000" lon="-72.250500000">
<ele>0</ele>
<time>2026-09-04T07:34:01Z</time>
</trkpt>
<trkpt lat="46.495300000" lon="-72.250630000">
<ele>0</ele>
<time>2026-09-04T07:34:02Z</time>
</trkpt>
<trkpt lat="46.495100000" lon="-72.250780000">
<ele>0</ele>
<time>2026-09-04T07:34:03Z</time>
</trkpt>
<trkpt lat="46.494460000" lon="-72.251340000">
<ele>0</ele>
<time>2026-09-04T07:34:04Z</time>
</trkpt>
<trkpt lat="46.493570000" lon="-72.252220000">
<ele>0</ele>
<time>2026-09-04T07:34:05Z</time>
</trkpt>
<trkpt lat="46.492690000" lon="-72.253020000">
<ele>0</ele>
<time>2026-09-04T07:34:06Z</time>
</trkpt>
<trkpt lat="46.491240000" lon="-72.254410000">
<ele>0</ele>
<time>2026-09-04T07:34:07Z</time>
</trkpt>
<trkpt lat="46.491240000" lon="-72.254410000">
<ele>0</ele>
<time>2026-09-04T07:34:08Z</time>
</trkpt>
<trkpt lat="46.490590000" lon="-72.254950000">
<ele>0</ele>
<time>2026-09-04T07:34:09Z</time>
</trkpt>
<trkpt lat="46.490230000" lon="-72.255200000">
<ele>0</ele>
<time>2026-09-04T07:34:10Z</time>
</trkpt>
<trkpt lat="46.489370000" lon="-72.255780000">
<ele>0</ele>
<time>2026-09-04T07:34:11Z</time>
</trkpt>
<trkpt lat="46.485820000" lon="-72.257730000">
<ele>0</ele>
<time>2026-09-04T07:34:12Z</time>
</trkpt>
<trkpt lat="46.485280000" lon="-72.258060000">
<ele>0</ele>
<time>2026-09-04T07:34:13Z</time>
</trkpt>
<trkpt lat="46.484330000" lon="-72.258690000">
<ele>0</ele>
<time>2026-09-04T07:34:14Z</time>
</trkpt>
<trkpt lat="46.483190000" lon="-72.259490000">
<ele>0</ele>
<time>2026-09-04T07:34:15Z</time>
</trkpt>
<trkpt lat="46.480860000" lon="-72.261340000">
<ele>0</ele>
<time>2026-09-04T07:34:16Z</time>
</trkpt>
<trkpt lat="46.480700000" lon="-72.261460000">
<ele>0</ele>
<time>2026-09-04T07:34:17Z</time>
</trkpt>
<trkpt lat="46.479420000" lon="-72.262450000">
<ele>0</ele>
<time>2026-09-04T07:34:18Z</time>
</trkpt>
<trkpt lat="46.478640000" lon="-72.262980000">
<ele>0</ele>
<time>2026-09-04T07:34:19Z</time>
</trkpt>
<trkpt lat="46.477990000" lon="-72.263370000">
<ele>0</ele>
<time>2026-09-04T07:34:20Z</time>
</trkpt>
<trkpt lat="46.477360000" lon="-72.263720000">
<ele>0</ele>
<time>2026-09-04T07:34:21Z</time>
</trkpt>
<trkpt lat="46.476610000" lon="-72.264100000">
<ele>0</ele>
<time>2026-09-04T07:34:22Z</time>
</trkpt>
<trkpt lat="46.475170000" lon="-72.264760000">
<ele>0</ele>
<time>2026-09-04T07:34:23Z</time>
</trkpt>
<trkpt lat="46.473590000" lon="-72.265540000">
<ele>0</ele>
<time>2026-09-04T07:34:24Z</time>
</trkpt>
<trkpt lat="46.472450000" lon="-72.266150000">
<ele>0</ele>
<time>2026-09-04T07:34:25Z</time>
</trkpt>
<trkpt lat="46.469140000" lon="-72.268030000">
<ele>0</ele>
<time>2026-09-04T07:34:26Z</time>
</trkpt>
<trkpt lat="46.466340000" lon="-72.269450000">
<ele>0</ele>
<time>2026-09-04T07:34:27Z</time>
</trkpt>
<trkpt lat="46.463690000" lon="-72.270740000">
<ele>0</ele>
<time>2026-09-04T07:34:28Z</time>
</trkpt>
<trkpt lat="46.456450000" lon="-72.274240000">
<ele>0</ele>
<time>2026-09-04T07:34:29Z</time>
</trkpt>
<trkpt lat="46.455820000" lon="-72.274560000">
<ele>0</ele>
<time>2026-09-04T07:34:30Z</time>
</trkpt>
<trkpt lat="46.455220000" lon="-72.274950000">
<ele>0</ele>
<time>2026-09-04T07:34:31Z</time>
</trkpt>
<trkpt lat="46.454990000" lon="-72.275120000">
<ele>0</ele>
<time>2026-09-04T07:34:32Z</time>
</trkpt>
<trkpt lat="46.454600000" lon="-72.275480000">
<ele>0</ele>
<time>2026-09-04T07:34:33Z</time>
</trkpt>
<trkpt lat="46.454180000" lon="-72.275930000">
<ele>0</ele>
<time>2026-09-04T07:34:34Z</time>
</trkpt>
<trkpt lat="46.453790000" lon="-72.276420000">
<ele>0</ele>
<time>2026-09-04T07:34:35Z</time>
</trkpt>
<trkpt lat="46.453300000" lon="-72.277200000">
<ele>0</ele>
<time>2026-09-04T07:34:36Z</time>
</trkpt>
<trkpt lat="46.453020000" lon="-72.277720000">
<ele>0</ele>
<time>2026-09-04T07:34:37Z</time>
</trkpt>
<trkpt lat="46.452820000" lon="-72.278130000">
<ele>0</ele>
<time>2026-09-04T07:34:38Z</time>
</trkpt>
<trkpt lat="46.452480000" lon="-72.279020000">
<ele>0</ele>
<time>2026-09-04T07:34:39Z</time>
</trkpt>
<trkpt lat="46.451050000" lon="-72.283370000">
<ele>0</ele>
<time>2026-09-04T07:34:40Z</time>
</trkpt>
<trkpt lat="46.450830000" lon="-72.283940000">
<ele>0</ele>
<time>2026-09-04T07:34:41Z</time>
</trkpt>
<trkpt lat="46.450600000" lon="-72.284460000">
<ele>0</ele>
<time>2026-09-04T07:34:42Z</time>
</trkpt>
<trkpt lat="46.450300000" lon="-72.284980000">
<ele>0</ele>
<time>2026-09-04T07:34:43Z</time>
</trkpt>
<trkpt lat="46.450020000" lon="-72.285400000">
<ele>0</ele>
<time>2026-09-04T07:34:44Z</time>
</trkpt>
<trkpt lat="46.449780000" lon="-72.285740000">
<ele>0</ele>
<time>2026-09-04T07:34:45Z</time>
</trkpt>
<trkpt lat="46.449560000" lon="-72.285990000">
<ele>0</ele>
<time>2026-09-04T07:34:46Z</time>
</trkpt>
<trkpt lat="46.448740000" lon="-72.286800000">
<ele>0</ele>
<time>2026-09-04T07:34:47Z</time>
</trkpt>
<trkpt lat="46.448370000" lon="-72.287160000">
<ele>0</ele>
<time>2026-09-04T07:34:48Z</time>
</trkpt>
<trkpt lat="46.448080000" lon="-72.287490000">
<ele>0</ele>
<time>2026-09-04T07:34:49Z</time>
</trkpt>
<trkpt lat="46.447870000" lon="-72.287740000">
<ele>0</ele>
<time>2026-09-04T07:34:50Z</time>
</trkpt>
<trkpt lat="46.447590000" lon="-72.288180000">
<ele>0</ele>
<time>2026-09-04T07:34:51Z</time>
</trkpt>
<trkpt lat="46.447380000" lon="-72.288580000">
<ele>0</ele>
<time>2026-09-04T07:34:52Z</time>
</trkpt>
<trkpt lat="46.447130000" lon="-72.289170000">
<ele>0</ele>
<time>2026-09-04T07:34:53Z</time>
</trkpt>
<trkpt lat="46.446960000" lon="-72.289700000">
<ele>0</ele>
<time>2026-09-04T07:34:54Z</time>
</trkpt>
<trkpt lat="46.446860000" lon="-72.290140000">
<ele>0</ele>
<time>2026-09-04T07:34:55Z</time>
</trkpt>
<trkpt lat="46.446780000" lon="-72.290600000">
<ele>0</ele>
<time>2026-09-04T07:34:56Z</time>
</trkpt>
<trkpt lat="46.446720000" lon="-72.291110000">
<ele>0</ele>
<time>2026-09-04T07:34:57Z</time>
</trkpt>
<trkpt lat="46.446620000" lon="-72.292430000">
<ele>0</ele>
<time>2026-09-04T07:34:58Z</time>
</trkpt>
<trkpt lat="46.446620000" lon="-72.292430000">
<ele>0</ele>
<time>2026-09-04T07:34:59Z</time>
</trkpt>
<trkpt lat="46.446450000" lon="-72.294530000">
<ele>0</ele>
<time>2026-09-04T07:35:00Z</time>
</trkpt>
<trkpt lat="46.446360000" lon="-72.295480000">
<ele>0</ele>
<time>2026-09-04T07:35:01Z</time>
</trkpt>
<trkpt lat="46.446240000" lon="-72.296540000">
<ele>0</ele>
<time>2026-09-04T07:35:02Z</time>
</trkpt>
<trkpt lat="46.446080000" lon="-72.297560000">
<ele>0</ele>
<time>2026-09-04T07:35:03Z</time>
</trkpt>
<trkpt lat="46.445650000" lon="-72.299750000">
<ele>0</ele>
<time>2026-09-04T07:35:04Z</time>
</trkpt>
<trkpt lat="46.445460000" lon="-72.300940000">
<ele>0</ele>
<time>2026-09-04T07:35:05Z</time>
</trkpt>
<trkpt lat="46.445390000" lon="-72.301570000">
<ele>0</ele>
<time>2026-09-04T07:35:06Z</time>
</trkpt>
<trkpt lat="46.445280000" lon="-72.302870000">
<ele>0</ele>
<time>2026-09-04T07:35:07Z</time>
</trkpt>
<trkpt lat="46.445140000" lon="-72.304450000">
<ele>0</ele>
<time>2026-09-04T07:35:08Z</time>
</trkpt>
<trkpt lat="46.445040000" lon="-72.305300000">
<ele>0</ele>
<time>2026-09-04T07:35:09Z</time>
</trkpt>
<trkpt lat="46.444850000" lon="-72.306660000">
<ele>0</ele>
<time>2026-09-04T07:35:10Z</time>
</trkpt>
<trkpt lat="46.444200000" lon="-72.310990000">
<ele>0</ele>
<time>2026-09-04T07:35:11Z</time>
</trkpt>
<trkpt lat="46.443730000" lon="-72.314130000">
<ele>0</ele>
<time>2026-09-04T07:35:12Z</time>
</trkpt>
<trkpt lat="46.443730000" lon="-72.314130000">
<ele>0</ele>
<time>2026-09-04T07:35:13Z</time>
</trkpt>
<trkpt lat="46.443350000" lon="-72.316680000">
<ele>0</ele>
<time>2026-09-04T07:35:14Z</time>
</trkpt>
<trkpt lat="46.443180000" lon="-72.317930000">
<ele>0</ele>
<time>2026-09-04T07:35:15Z</time>
</trkpt>
<trkpt lat="46.443050000" lon="-72.319030000">
<ele>0</ele>
<time>2026-09-04T07:35:16Z</time>
</trkpt>
<trkpt lat="46.442990000" lon="-72.319690000">
<ele>0</ele>
<time>2026-09-04T07:35:17Z</time>
</trkpt>
<trkpt lat="46.442910000" lon="-72.320880000">
<ele>0</ele>
<time>2026-09-04T07:35:18Z</time>
</trkpt>
<trkpt lat="46.442810000" lon="-72.323380000">
<ele>0</ele>
<time>2026-09-04T07:35:19Z</time>
</trkpt>
<trkpt lat="46.442750000" lon="-72.324710000">
<ele>0</ele>
<time>2026-09-04T07:35:20Z</time>
</trkpt>
<trkpt lat="46.442670000" lon="-72.325700000">
<ele>0</ele>
<time>2026-09-04T07:35:21Z</time>
</trkpt>
<trkpt lat="46.442530000" lon="-72.326920000">
<ele>0</ele>
<time>2026-09-04T07:35:22Z</time>
</trkpt>
<trkpt lat="46.442310000" lon="-72.328620000">
<ele>0</ele>
<time>2026-09-04T07:35:23Z</time>
</trkpt>
<trkpt lat="46.442220000" lon="-72.329800000">
<ele>0</ele>
<time>2026-09-04T07:35:24Z</time>
</trkpt>
<trkpt lat="46.442160000" lon="-72.330910000">
<ele>0</ele>
<time>2026-09-04T07:35:25Z</time>
</trkpt>
<trkpt lat="46.442140000" lon="-72.332680000">
<ele>0</ele>
<time>2026-09-04T07:35:26Z</time>
</trkpt>
<trkpt lat="46.442100000" lon="-72.333540000">
<ele>0</ele>
<time>2026-09-04T07:35:27Z</time>
</trkpt>
<trkpt lat="46.442010000" lon="-72.334750000">
<ele>0</ele>
<time>2026-09-04T07:35:28Z</time>
</trkpt>
<trkpt lat="46.441930000" lon="-72.335760000">
<ele>0</ele>
<time>2026-09-04T07:35:29Z</time>
</trkpt>
<trkpt lat="46.441910000" lon="-72.336360000">
<ele>0</ele>
<time>2026-09-04T07:35:30Z</time>
</trkpt>
<trkpt lat="46.441840000" lon="-72.336990000">
<ele>0</ele>
<time>2026-09-04T07:35:31Z</time>
</trkpt>
<trkpt lat="46.441600000" lon="-72.338560000">
<ele>0</ele>
<time>2026-09-04T07:35:32Z</time>
</trkpt>
<trkpt lat="46.441450000" lon="-72.339640000">
<ele>0</ele>
<time>2026-09-04T07:35:33Z</time>
</trkpt>
<trkpt lat="46.441230000" lon="-72.341710000">
<ele>0</ele>
<time>2026-09-04T07:35:34Z</time>
</trkpt>
</trkseg>
</trk>
</gpx>
